Darstellungsparameter: Aktuell verwendete Einstellungen:
Skalierung der Graphiken ... ?
xyx+y,   Skalierungsfaktor:      Skalierung: Modus: x, Faktor: 1
Darstellungszeitraum ... ?
Vom - - bis: - -   Zeitraum: 05.05.2021 - 09.05.2021
Min/Max/Avg-Anzeige ... ?
Zeige MMA aktuell
Zeige MMA Monat
Zeige MMA alles
Zeige --A aktuell
Zeige --A Monat
Zeige --A alles
Keine MMA-Anzeige
MMA:
Average (ber die Originaldaten)
MMA-Basis: 23.02.2003 - 23.04.2020
Quicknavigation für Darstellung... ?
Tage:      1T, 2T, 3T, 5T -1T -2T -3T -5T +1T +2T +3T +5T
Wochen: 1W, 2W, 3W -1W -2W -3W +1W +2W +3W
Monate: 1M, 3M, 6M -1M -3M -6M +1M +3M +6M
Jahre:    1J, 3J, 5J, 10J -1J -3J -5J -10J +1J +3J +5J +10J
Nutze für die Darstellung ... ?
Originaldaten oder Mittelwerte auf ...
Stundenbasis Tagesbasis Wochenbasis
Monatsbasis Jahresbasis      Datenbasis: Original-Daten
Darstellen als:
Statistik (Auto) Statistik J:M      Darstellung:
Zur Graphik,    zurück zur Übersicht aller Sensoren.
 
Tabellarische Datenbersicht: ?
 
Sensor: Nr:Datum:Temp:Abs-Feuchte:Windchill:Wind:
Aussen-T/F 1 05-05-2021 00:00:00 6.9 C 7.01 g/m*3 6.9 C 3.2 km/h
2 05-05-2021 00:05:00 6.8 C 6.96 g/m*3 6.8 C 4.8 km/h
3 05-05-2021 00:10:00 6.7 C 6.91 g/m*3 6.7 C 4.8 km/h
4 05-05-2021 00:15:00 6.6 C 6.87 g/m*3 6.6 C 4.8 km/h
5 05-05-2021 00:20:00 6.4 C 6.78 g/m*3 6.4 C 4.8 km/h
6 05-05-2021 00:25:00 6.4 C 6.78 g/m*3 6.4 C 3.2 km/h
7 05-05-2021 00:30:00 6.3 C 6.74 g/m*3 6.3 C 4.8 km/h
8 05-05-2021 00:35:00 6.2 C 6.77 g/m*3 6.2 C 4.8 km/h
9 05-05-2021 00:40:00 6.2 C 6.77 g/m*3 6.2 C 3.2 km/h
10 05-05-2021 00:45:00 6.1 C 6.65 g/m*3 6.1 C 3.2 km/h
11 05-05-2021 00:50:00 6.1 C 6.72 g/m*3 4.86 C 6.4 km/h
12 05-05-2021 00:55:00 6 C 6.68 g/m*3 6 C 1.6 km/h
13 05-05-2021 01:00:00 5.9 C 6.63 g/m*3 5.9 C 3.2 km/h
14 05-05-2021 01:05:00 5.8 C 6.59 g/m*3 5.8 C 3.2 km/h
15 05-05-2021 01:10:00 5.8 C 6.59 g/m*3 5.8 C 1.6 km/h
16 05-05-2021 01:15:00 5.7 C 6.55 g/m*3 5.7 C 3.2 km/h
17 05-05-2021 01:20:00 5.6 C 6.5 g/m*3 5.6 C 3.2 km/h
18 05-05-2021 01:25:00 5.6 C 6.5 g/m*3 5.6 C 1.6 km/h
19 05-05-2021 01:30:00 5.6 C 6.5 g/m*3 5.6 C 1.6 km/h
20 05-05-2021 01:35:00 5.6 C 6.5 g/m*3 5.6 C 3.2 km/h
21 05-05-2021 01:40:00 5.4 C 6.42 g/m*3 5.4 C 1.6 km/h
22 05-05-2021 01:45:00 5.3 C 6.38 g/m*3 5.3 C 3.2 km/h
23 05-05-2021 01:50:00 5.3 C 6.38 g/m*3 5.3 C 4.8 km/h
24 05-05-2021 01:55:00 5.2 C 6.33 g/m*3 5.2 C 3.2 km/h
25 05-05-2021 02:00:00 5.1 C 6.29 g/m*3 5.1 C 3.2 km/h
Sensor: Nr:Datum:Temp:Abs-Feuchte:Windchill:Wind:
Aussen-T/F 26 05-05-2021 02:05:00 5 C 6.18 g/m*3 5 C 3.2 km/h
27 05-05-2021 02:10:00 4.8 C 6.1 g/m*3 4.8 C 3.2 km/h
28 05-05-2021 02:15:00 4.7 C 6.06 g/m*3 4.7 C 4.8 km/h
29 05-05-2021 02:20:00 4.6 C 6.02 g/m*3 4.6 C 4.8 km/h
30 05-05-2021 02:25:00 4.5 C 5.98 g/m*3 4.5 C 3.2 km/h
31 05-05-2021 02:30:00 4.4 C 5.94 g/m*3 4.4 C 3.2 km/h
32 05-05-2021 02:35:00 4.4 C 5.94 g/m*3 4.4 C 3.2 km/h
33 05-05-2021 02:40:00 4.3 C 5.9 g/m*3 4.3 C 3.2 km/h
34 05-05-2021 02:45:00 4.3 C 5.9 g/m*3 4.3 C 3.2 km/h
35 05-05-2021 02:50:00 4.3 C 5.9 g/m*3 4.3 C 4.8 km/h
36 05-05-2021 02:55:00 4.3 C 5.84 g/m*3 4.3 C 3.2 km/h
37 05-05-2021 03:00:00 4.3 C 5.84 g/m*3 4.3 C 3.2 km/h
38 05-05-2021 03:05:00 4.3 C 5.84 g/m*3 2.78 C 6.4 km/h
39 05-05-2021 03:10:00 4.2 C 5.8 g/m*3 4.2 C 1.6 km/h
40 05-05-2021 03:15:00 4.2 C 5.8 g/m*3 4.2 C 3.2 km/h
41 05-05-2021 03:20:00 4.2 C 5.8 g/m*3 4.2 C 3.2 km/h
42 05-05-2021 03:25:00 4.1 C 5.7 g/m*3 4.1 C 4.8 km/h
43 05-05-2021 03:30:00 4.1 C 5.76 g/m*3 4.1 C 0 km/h
44 05-05-2021 03:35:00 4.1 C 5.76 g/m*3 4.1 C 4.8 km/h
45 05-05-2021 03:40:00 4.1 C 5.76 g/m*3 2.05 C 8.1 km/h
46 05-05-2021 03:45:00 4.1 C 5.76 g/m*3 2.05 C 8.1 km/h
47 05-05-2021 03:50:00 4.2 C 5.8 g/m*3 2.67 C 6.4 km/h
48 05-05-2021 03:55:00 4.2 C 5.73 g/m*3 4.2 C 3.2 km/h
49 05-05-2021 04:00:00 4.3 C 5.77 g/m*3 4.3 C 1.6 km/h
50 05-05-2021 04:05:00 4.3 C 5.77 g/m*3 4.3 C 1.6 km/h
Sensor: Nr:Datum:Temp:Abs-Feuchte:Windchill:Wind:
Aussen-T/F 51 05-05-2021 04:10:00 4.2 C 5.73 g/m*3 4.2 C 1.6 km/h
52 05-05-2021 04:15:00 4.2 C 5.73 g/m*3 4.2 C 1.6 km/h
53 05-05-2021 04:20:00 4.2 C 5.73 g/m*3 2.67 C 6.4 km/h
54 05-05-2021 04:25:00 4.2 C 5.73 g/m*3 2.17 C 8.1 km/h
55 05-05-2021 04:30:00 4.3 C 5.77 g/m*3 4.3 C 3.2 km/h
56 05-05-2021 04:35:00 4.3 C 5.77 g/m*3 4.3 C 4.8 km/h
57 05-05-2021 04:40:00 4.4 C 5.75 g/m*3 4.4 C 3.2 km/h
58 05-05-2021 04:45:00 4.4 C 5.75 g/m*3 4.4 C 4.8 km/h
59 05-05-2021 04:50:00 4.5 C 5.72 g/m*3 1.79 C 11.3 km/h
60 05-05-2021 04:55:00 4.6 C 5.69 g/m*3 4.6 C 3.2 km/h
61 05-05-2021 05:00:00 4.7 C 5.73 g/m*3 3.25 C 6.4 km/h
62 05-05-2021 05:05:00 4.7 C 5.73 g/m*3 4.7 C 3.2 km/h
63 05-05-2021 05:10:00 4.6 C 5.69 g/m*3 4.6 C 4.8 km/h
64 05-05-2021 05:15:00 4.6 C 5.69 g/m*3 4.6 C 4.8 km/h
65 05-05-2021 05:20:00 4.6 C 5.69 g/m*3 2.64 C 8.1 km/h
66 05-05-2021 05:25:00 4.7 C 5.73 g/m*3 4.7 C 3.2 km/h
67 05-05-2021 05:30:00 4.8 C 5.77 g/m*3 3.36 C 6.4 km/h
68 05-05-2021 05:35:00 5 C 5.78 g/m*3 2.39 C 11.3 km/h
69 05-05-2021 05:40:00 5.1 C 5.81 g/m*3 5.1 C 3.2 km/h
70 05-05-2021 05:45:00 5.1 C 5.75 g/m*3 3.71 C 6.4 km/h
71 05-05-2021 05:50:00 5.1 C 5.68 g/m*3 3.71 C 6.4 km/h
72 05-05-2021 05:55:00 5.1 C 5.68 g/m*3 5.1 C 4.8 km/h
73 05-05-2021 06:00:00 5.1 C 5.68 g/m*3 3.23 C 8.1 km/h
74 05-05-2021 06:05:00 5.1 C 5.68 g/m*3 3.71 C 6.4 km/h
75 05-05-2021 06:10:00 5.1 C 5.68 g/m*3 2.84 C 9.7 km/h
Sensor: Nr:Datum:Temp:Abs-Feuchte:Windchill:Wind:
Aussen-T/F 76 05-05-2021 06:15:00 5.2 C 5.71 g/m*3 3.82 C 6.4 km/h
77 05-05-2021 06:20:00 5.3 C 5.75 g/m*3 5.3 C 3.2 km/h
78 05-05-2021 06:25:00 5.3 C 5.75 g/m*3 3.94 C 6.4 km/h
79 05-05-2021 06:30:00 5.3 C 5.75 g/m*3 3.94 C 6.4 km/h
80 05-05-2021 06:35:00 5.3 C 5.82 g/m*3 5.3 C 4.8 km/h
81 05-05-2021 06:40:00 5.3 C 5.82 g/m*3 2.46 C 12.9 km/h
82 05-05-2021 06:45:00 5.4 C 5.79 g/m*3 2.58 C 12.9 km/h
83 05-05-2021 06:50:00 5.4 C 5.79 g/m*3 3.58 C 8.1 km/h
84 05-05-2021 06:55:00 5.6 C 5.87 g/m*3 3.44 C 9.7 km/h
85 05-05-2021 07:00:00 5.7 C 5.84 g/m*3 3.23 C 11.3 km/h
86 05-05-2021 07:05:00 5.8 C 5.87 g/m*3 4.05 C 8.1 km/h
87 05-05-2021 07:10:00 5.8 C 5.87 g/m*3 3.36 C 11.3 km/h
88 05-05-2021 07:15:00 5.8 C 5.8 g/m*3 3.07 C 12.9 km/h
89 05-05-2021 07:20:00 5.9 C 5.91 g/m*3 4.17 C 8.1 km/h
90 05-05-2021 07:25:00 5.9 C 5.84 g/m*3 3.19 C 12.9 km/h
91 05-05-2021 07:30:00 5.9 C 5.91 g/m*3 5.9 C 4.8 km/h
92 05-05-2021 07:35:00 5.9 C 5.91 g/m*3 4.63 C 6.4 km/h
93 05-05-2021 07:40:00 5.8 C 5.87 g/m*3 4.52 C 6.4 km/h
94 05-05-2021 07:45:00 5.8 C 5.95 g/m*3 4.52 C 6.4 km/h
95 05-05-2021 07:50:00 5.8 C 5.95 g/m*3 3.07 C 12.9 km/h
96 05-05-2021 07:55:00 6 C 5.95 g/m*3 3.6 C 11.3 km/h
97 05-05-2021 08:00:00 6.2 C 6.03 g/m*3 3.56 C 12.9 km/h
98 05-05-2021 08:05:00 6.4 C 6.11 g/m*3 4.08 C 11.3 km/h
99 05-05-2021 08:10:00 6.5 C 6.15 g/m*3 4.2 C 11.3 km/h
100 05-05-2021 08:15:00 6.6 C 6.19 g/m*3 5.44 C 6.4 km/h
Sensor: Nr:Datum:Temp:Abs-Feuchte:Windchill:Wind:
Aussen-T/F 101 05-05-2021 08:20:00 6.6 C 6.11 g/m*3 4.04 C 12.9 km/h
102 05-05-2021 08:25:00 6.6 C 6.11 g/m*3 4.63 C 9.7 km/h
103 05-05-2021 08:30:00 6.5 C 6.07 g/m*3 3.67 C 14.5 km/h
104 05-05-2021 08:35:00 6.5 C 6.07 g/m*3 3.67 C 14.5 km/h
105 05-05-2021 08:40:00 6.6 C 6.11 g/m*3 4.04 C 12.9 km/h
106 05-05-2021 08:45:00 6.8 C 6.19 g/m*3 4.56 C 11.3 km/h
107 05-05-2021 08:50:00 6.9 C 6.24 g/m*3 3.73 C 17.7 km/h
108 05-05-2021 08:55:00 7.1 C 6.16 g/m*3 3.98 C 17.7 km/h
109 05-05-2021 09:00:00 7.1 C 6.16 g/m*3 3.8 C 19.3 km/h
110 05-05-2021 09:05:00 7.2 C 6.2 g/m*3 4.77 C 12.9 km/h
111 05-05-2021 09:10:00 7.3 C 6.24 g/m*3 4.23 C 17.7 km/h
112 05-05-2021 09:15:00 7.6 C 6.28 g/m*3 4.81 C 16.1 km/h
113 05-05-2021 09:20:00 7.8 C 6.28 g/m*3 5.27 C 14.5 km/h
114 05-05-2021 09:25:00 7.9 C 6.24 g/m*3 4.98 C 17.7 km/h
115 05-05-2021 09:30:00 7.9 C 6.16 g/m*3 4.47 C 22.5 km/h
116 05-05-2021 09:35:00 8 C 6.28 g/m*3 4.93 C 19.3 km/h
117 05-05-2021 09:40:00 8.3 C 6.41 g/m*3 5.89 C 14.5 km/h
118 05-05-2021 09:45:00 8.6 C 6.44 g/m*3 5.52 C 20.9 km/h
119 05-05-2021 09:50:00 8.7 C 6.4 g/m*3 5.98 C 17.7 km/h
120 05-05-2021 09:55:00 8.8 C 6.44 g/m*3 6.11 C 17.7 km/h
121 05-05-2021 10:00:00 8.8 C 6.35 g/m*3 5.48 C 24.1 km/h
122 05-05-2021 10:05:00 8.2 C 6.53 g/m*3 5.36 C 17.7 km/h
123 05-05-2021 10:10:00 7.7 C 6.49 g/m*3 4.07 C 24.1 km/h
124 05-05-2021 10:15:00 7.1 C 6.24 g/m*3 3.15 C 25.7 km/h
125 05-05-2021 10:20:00 6.4 C 6.26 g/m*3 2.4 C 24.1 km/h
Sensor: Nr:Datum:Temp:Abs-Feuchte:Windchill:Wind:
Aussen-T/F 126 05-05-2021 10:25:00 6.2 C 6.32 g/m*3 2.66 C 19.3 km/h
127 05-05-2021 10:30:00 5.9 C 6.2 g/m*3 3.48 C 11.3 km/h
128 05-05-2021 10:35:00 5.9 C 6.27 g/m*3 3.8 C 9.7 km/h
129 05-05-2021 10:40:00 6.2 C 6.4 g/m*3 3.3 C 14.5 km/h
130 05-05-2021 10:45:00 6.4 C 6.48 g/m*3 3.11 C 17.7 km/h
131 05-05-2021 10:50:00 6.9 C 6.62 g/m*3 3.73 C 17.7 km/h
132 05-05-2021 10:55:00 7.2 C 6.67 g/m*3 4.11 C 17.7 km/h
133 05-05-2021 11:00:00 7.6 C 6.77 g/m*3 4.81 C 16.1 km/h
134 05-05-2021 11:05:00 8 C 6.86 g/m*3 5.11 C 17.7 km/h
135 05-05-2021 11:10:00 7.8 C 6.69 g/m*3 4.51 C 20.9 km/h
136 05-05-2021 11:15:00 7.4 C 6.52 g/m*3 4.17 C 19.3 km/h
137 05-05-2021 11:20:00 7.2 C 6.44 g/m*3 3.92 C 19.3 km/h
138 05-05-2021 11:25:00 7.1 C 6.24 g/m*3 2.74 C 30.6 km/h
139 05-05-2021 11:30:00 6.8 C 6.19 g/m*3 2.35 C 30.6 km/h
140 05-05-2021 11:35:00 6.7 C 6 g/m*3 4.44 C 11.3 km/h
141 05-05-2021 11:40:00 6.8 C 6.19 g/m*3 4.29 C 12.9 km/h
142 05-05-2021 11:45:00 7.3 C 6.48 g/m*3 4.9 C 12.9 km/h
143 05-05-2021 11:50:00 7.9 C 6.65 g/m*3 4.98 C 17.7 km/h
144 05-05-2021 11:55:00 8.3 C 6.57 g/m*3 5.68 C 16.1 km/h
145 05-05-2021 12:00:00 8.7 C 6.83 g/m*3 6.38 C 14.5 km/h
146 05-05-2021 12:05:00 9.1 C 7.01 g/m*3 6.48 C 17.7 km/h
147 05-05-2021 12:10:00 9.4 C 6.96 g/m*3 7.24 C 14.5 km/h
148 05-05-2021 12:15:00 9.6 C 6.87 g/m*3 7.29 C 16.1 km/h
149 05-05-2021 12:20:00 9.7 C 6.91 g/m*3 8.63 C 8.1 km/h
150 05-05-2021 12:25:00 9.7 C 6.36 g/m*3 7.23 C 17.7 km/h
Sensor: Nr:Datum:Temp:Abs-Feuchte:Windchill:Wind:
Aussen-T/F 151 05-05-2021 12:30:00 9.7 C 6.27 g/m*3 7.41 C 16.1 km/h
152 05-05-2021 12:35:00 9.7 C 6.64 g/m*3 7.07 C 19.3 km/h
153 05-05-2021 12:40:00 9.6 C 6.78 g/m*3 7.94 C 11.3 km/h
154 05-05-2021 12:45:00 9.7 C 6.45 g/m*3 6.63 C 24.1 km/h
155 05-05-2021 12:50:00 9.9 C 6.44 g/m*3 7.32 C 19.3 km/h
156 05-05-2021 12:55:00 10.1 C 6.34 g/m*3 7.73 C 17.7 km/h
157 05-05-2021 13:00:00 9.8 C 6.4 g/m*3 7.04 C 20.9 km/h
158 05-05-2021 13:05:00 9.5 C 6.46 g/m*3 6.66 C 20.9 km/h
159 05-05-2021 13:10:00 9.3 C 6.29 g/m*3 6.92 C 16.1 km/h
160 05-05-2021 13:15:00 9.2 C 6.34 g/m*3 6.79 C 16.1 km/h
161 05-05-2021 13:20:00 9.1 C 6.48 g/m*3 6.67 C 16.1 km/h
162 05-05-2021 13:25:00 9 C 6.35 g/m*3 6.19 C 19.3 km/h
163 05-05-2021 13:30:00 8.9 C 6.31 g/m*3 5.75 C 22.5 km/h
164 05-05-2021 13:35:00 9 C 6.26 g/m*3 6.19 C 19.3 km/h
165 05-05-2021 13:40:00 9.1 C 6.21 g/m*3 6.15 C 20.9 km/h
166 05-05-2021 13:45:00 9.2 C 6.07 g/m*3 6.44 C 19.3 km/h
167 05-05-2021 13:50:00 9.2 C 5.98 g/m*3 6.99 C 14.5 km/h
168 05-05-2021 13:55:00 9.2 C 5.98 g/m*3 6.61 C 17.7 km/h
169 05-05-2021 14:00:00 9.2 C 5.89 g/m*3 6.61 C 17.7 km/h
170 05-05-2021 14:05:00 9.2 C 6.16 g/m*3 6.13 C 22.5 km/h
171 05-05-2021 14:10:00 9.2 C 6.25 g/m*3 6.79 C 16.1 km/h
172 05-05-2021 14:15:00 9.2 C 6.25 g/m*3 6.99 C 14.5 km/h
173 05-05-2021 14:20:00 9.1 C 6.21 g/m*3 6.67 C 16.1 km/h
174 05-05-2021 14:25:00 9.2 C 6.25 g/m*3 6.79 C 16.1 km/h
175 05-05-2021 14:30:00 9.1 C 6.21 g/m*3 6.87 C 14.5 km/h
Sensor: Nr:Datum:Temp:Abs-Feuchte:Windchill:Wind:
Aussen-T/F 176 05-05-2021 14:35:00 9 C 6.26 g/m*3 7.21 C 11.3 km/h
177 05-05-2021 14:40:00 9.1 C 6.3 g/m*3 7.61 C 9.7 km/h
178 05-05-2021 14:45:00 9.4 C 6.33 g/m*3 7.7 C 11.3 km/h
179 05-05-2021 14:50:00 9.6 C 6.32 g/m*3 7.7 C 12.9 km/h
180 05-05-2021 14:55:00 9.6 C 6.14 g/m*3 7.29 C 16.1 km/h
181 05-05-2021 15:00:00 9.7 C 6.27 g/m*3 6.91 C 20.9 km/h
182 05-05-2021 15:05:00 9.8 C 6.4 g/m*3 7.36 C 17.7 km/h
183 05-05-2021 15:10:00 10.2 C 6.38 g/m*3 8.22 C 14.5 km/h
184 05-05-2021 15:15:00 10.3 C 6.13 g/m*3 8.16 C 16.1 km/h
185 05-05-2021 15:20:00 10 C 5.26 g/m*3 6.76 C 27.4 km/h
186 05-05-2021 15:25:00 9.6 C 5.04 g/m*3 6.5 C 24.1 km/h
187 05-05-2021 15:30:00 9.3 C 5.12 g/m*3 7.33 C 12.9 km/h
188 05-05-2021 15:35:00 9.3 C 5.21 g/m*3 7.85 C 9.7 km/h
189 05-05-2021 15:40:00 9.4 C 5.34 g/m*3 7.97 C 9.7 km/h
190 05-05-2021 15:45:00 9.6 C 5.5 g/m*3 8.91 C 6.4 km/h
191 05-05-2021 15:50:00 9.9 C 5.79 g/m*3 9.9 C 4.8 km/h
192 05-05-2021 15:55:00 10.7 C 6.09 g/m*3 10.7 C 4.8 km/h
193 05-05-2021 16:00:00 11.6 C 5.92 g/m*3 11.6 C 11.3 km/h
194 05-05-2021 16:05:00 12.5 C 6.05 g/m*3 12.5 C 16.1 km/h
195 05-05-2021 16:10:00 12.6 C 5.64 g/m*3 12.6 C 16.1 km/h
196 05-05-2021 16:15:00 12.1 C 5.68 g/m*3 12.1 C 16.1 km/h
197 05-05-2021 16:20:00 12.1 C 6.11 g/m*3 12.1 C 14.5 km/h
198 05-05-2021 16:25:00 12.4 C 6.34 g/m*3 12.4 C 20.9 km/h
199 05-05-2021 16:30:00 12.7 C 6.12 g/m*3 12.7 C 22.5 km/h
200 05-05-2021 16:35:00 12.9 C 6.42 g/m*3 12.9 C 14.5 km/h
Sensor: Nr:Datum:Temp:Abs-Feuchte:Windchill:Wind:
Aussen-T/F 201 05-05-2021 16:40:00 13.2 C 6.2 g/m*3 13.2 C 19.3 km/h
202 05-05-2021 16:45:00 13.4 C 5.7 g/m*3 13.4 C 22.5 km/h
203 05-05-2021 16:50:00 13.4 C 5.7 g/m*3 13.4 C 19.3 km/h
204 05-05-2021 16:55:00 13 C 5.67 g/m*3 13 C 17.7 km/h
205 05-05-2021 17:00:00 12.6 C 5.75 g/m*3 12.6 C 17.7 km/h
206 05-05-2021 17:05:00 12.4 C 5.57 g/m*3 12.4 C 14.5 km/h
207 05-05-2021 17:10:00 12.8 C 5.71 g/m*3 12.8 C 12.9 km/h
208 05-05-2021 17:15:00 13.2 C 5.51 g/m*3 13.2 C 16.1 km/h
209 05-05-2021 17:20:00 12.8 C 5.6 g/m*3 12.8 C 16.1 km/h
210 05-05-2021 17:25:00 12.4 C 5.24 g/m*3 12.4 C 14.5 km/h
211 05-05-2021 17:30:00 12.1 C 5.36 g/m*3 12.1 C 12.9 km/h
212 05-05-2021 17:35:00 11.8 C 5.47 g/m*3 11.8 C 11.3 km/h
213 05-05-2021 17:40:00 11.5 C 5.58 g/m*3 11.5 C 16.1 km/h
214 05-05-2021 17:45:00 11.3 C 5.3 g/m*3 11.3 C 11.3 km/h
215 05-05-2021 17:50:00 11.3 C 5.3 g/m*3 11.3 C 11.3 km/h
216 05-05-2021 17:55:00 11.4 C 5.13 g/m*3 11.4 C 14.5 km/h
217 05-05-2021 18:00:00 11.5 C 5.27 g/m*3 11.5 C 12.9 km/h
218 05-05-2021 18:05:00 11.4 C 5.13 g/m*3 11.4 C 14.5 km/h
219 05-05-2021 18:10:00 11.4 C 5.23 g/m*3 11.4 C 9.7 km/h
220 05-05-2021 18:15:00 11.4 C 5.03 g/m*3 11.4 C 12.9 km/h
221 05-05-2021 18:20:00 11.4 C 4.93 g/m*3 11.4 C 8.1 km/h
222 05-05-2021 18:25:00 11.4 C 5.03 g/m*3 11.4 C 8.1 km/h
223 05-05-2021 18:30:00 11.4 C 5.03 g/m*3 11.4 C 9.7 km/h
224 05-05-2021 18:35:00 11.5 C 5.16 g/m*3 11.5 C 11.3 km/h
225 05-05-2021 18:40:00 11.5 C 5.16 g/m*3 11.5 C 9.7 km/h
Sensor: Nr:Datum:Temp:Abs-Feuchte:Windchill:Wind:
Aussen-T/F 226 05-05-2021 18:45:00 11.5 C 5.16 g/m*3 11.5 C 9.7 km/h
227 05-05-2021 18:50:00 12.2 C 5.4 g/m*3 12.2 C 14.5 km/h
228 05-05-2021 18:55:00 12.7 C 5.45 g/m*3 12.7 C 17.7 km/h
229 05-05-2021 19:00:00 12.5 C 5.17 g/m*3 12.5 C 9.7 km/h
230 05-05-2021 19:05:00 12.2 C 5.29 g/m*3 12.2 C 9.7 km/h
231 05-05-2021 19:10:00 11.9 C 5.19 g/m*3 11.9 C 8.1 km/h
232 05-05-2021 19:15:00 11.7 C 5.12 g/m*3 11.7 C 8.1 km/h
233 05-05-2021 19:20:00 11.5 C 5.37 g/m*3 11.5 C 6.4 km/h
234 05-05-2021 19:25:00 11.4 C 5.44 g/m*3 11.4 C 6.4 km/h
235 05-05-2021 19:30:00 11.3 C 5.2 g/m*3 11.3 C 6.4 km/h
236 05-05-2021 19:35:00 11.3 C 5 g/m*3 11.3 C 11.3 km/h
237 05-05-2021 19:40:00 11.1 C 4.83 g/m*3 11.1 C 9.7 km/h
238 05-05-2021 19:45:00 11 C 5.31 g/m*3 9.88 C 9.7 km/h
239 05-05-2021 19:50:00 10.8 C 5.73 g/m*3 9.64 C 9.7 km/h
240 05-05-2021 19:55:00 10.6 C 5.86 g/m*3 8.92 C 12.9 km/h
241 05-05-2021 20:00:00 10.3 C 5.94 g/m*3 8.55 C 12.9 km/h
242 05-05-2021 20:05:00 10.1 C 6.05 g/m*3 8.54 C 11.3 km/h
243 05-05-2021 20:10:00 9.7 C 5.99 g/m*3 7.82 C 12.9 km/h
244 05-05-2021 20:15:00 9.6 C 6.05 g/m*3 7.48 C 14.5 km/h
245 05-05-2021 20:20:00 9.4 C 6.06 g/m*3 8.28 C 8.1 km/h
246 05-05-2021 20:25:00 9.3 C 6.11 g/m*3 7.12 C 14.5 km/h
247 05-05-2021 20:30:00 9.1 C 6.12 g/m*3 7.61 C 9.7 km/h
248 05-05-2021 20:35:00 8.9 C 6.22 g/m*3 7.69 C 8.1 km/h
249 05-05-2021 20:40:00 8.8 C 6.09 g/m*3 7.98 C 6.4 km/h
250 05-05-2021 20:45:00 8.6 C 6.27 g/m*3 6.25 C 14.5 km/h
Sensor: Nr:Datum:Temp:Abs-Feuchte:Windchill:Wind:
Aussen-T/F 251 05-05-2021 20:50:00 8.3 C 6.32 g/m*3 6.37 C 11.3 km/h
252 05-05-2021 20:55:00 8 C 6.45 g/m*3 6.64 C 8.1 km/h
253 05-05-2021 21:00:00 7.7 C 6.32 g/m*3 5.94 C 9.7 km/h
254 05-05-2021 21:05:00 7.5 C 6.4 g/m*3 7.5 C 4.8 km/h
255 05-05-2021 21:10:00 7.3 C 6.4 g/m*3 6.25 C 6.4 km/h
256 05-05-2021 21:15:00 7.1 C 6.4 g/m*3 7.1 C 3.2 km/h
257 05-05-2021 21:20:00 6.9 C 6.31 g/m*3 5.79 C 6.4 km/h
258 05-05-2021 21:25:00 6.9 C 6.39 g/m*3 6.9 C 4.8 km/h
259 05-05-2021 21:30:00 6.9 C 6.47 g/m*3 6.9 C 3.2 km/h
260 05-05-2021 21:35:00 6.8 C 6.42 g/m*3 5.67 C 6.4 km/h
261 05-05-2021 21:40:00 6.8 C 6.42 g/m*3 5.22 C 8.1 km/h
262 05-05-2021 21:45:00 6.7 C 6.31 g/m*3 3.92 C 14.5 km/h
263 05-05-2021 21:50:00 6.8 C 6.35 g/m*3 4.87 C 9.7 km/h
264 05-05-2021 21:55:00 6.8 C 6.35 g/m*3 4.04 C 14.5 km/h
265 05-05-2021 22:00:00 6.8 C 6.35 g/m*3 5.22 C 8.1 km/h
266 05-05-2021 22:05:00 6.7 C 6.31 g/m*3 5.11 C 8.1 km/h
267 05-05-2021 22:10:00 6.7 C 6.31 g/m*3 5.11 C 8.1 km/h
268 05-05-2021 22:15:00 6.6 C 6.27 g/m*3 5.44 C 6.4 km/h
269 05-05-2021 22:20:00 6.5 C 6.22 g/m*3 5.33 C 6.4 km/h
270 05-05-2021 22:25:00 6.3 C 6.14 g/m*3 5.1 C 6.4 km/h
271 05-05-2021 22:30:00 6.2 C 6.1 g/m*3 6.2 C 4.8 km/h
272 05-05-2021 22:35:00 6.1 C 6.06 g/m*3 4.4 C 8.1 km/h
273 05-05-2021 22:40:00 6 C 6.1 g/m*3 4.75 C 6.4 km/h
274 05-05-2021 22:45:00 5.9 C 6.06 g/m*3 4.17 C 8.1 km/h
275 05-05-2021 22:50:00 5.8 C 6.02 g/m*3 4.52 C 6.4 km/h
Sensor: Nr:Datum:Temp:Abs-Feuchte:Windchill:Wind:
Aussen-T/F 276 05-05-2021 22:55:00 5.7 C 6.05 g/m*3 5.7 C 4.8 km/h
277 05-05-2021 23:00:00 5.7 C 6.05 g/m*3 5.7 C 3.2 km/h
278 05-05-2021 23:05:00 5.6 C 6.01 g/m*3 5.6 C 3.2 km/h
279 05-05-2021 23:10:00 5.6 C 6.01 g/m*3 5.6 C 3.2 km/h
280 05-05-2021 23:15:00 5.6 C 6.01 g/m*3 5.6 C 4.8 km/h
281 05-05-2021 23:20:00 5.5 C 6.04 g/m*3 5.5 C 4.8 km/h
282 05-05-2021 23:25:00 5.4 C 6 g/m*3 5.4 C 3.2 km/h
283 05-05-2021 23:30:00 5.4 C 6 g/m*3 5.4 C 4.8 km/h
284 05-05-2021 23:35:00 5.4 C 6 g/m*3 5.4 C 1.6 km/h
285 05-05-2021 23:40:00 5.4 C 6 g/m*3 3.58 C 8.1 km/h
286 05-05-2021 23:45:00 5.4 C 6 g/m*3 5.4 C 3.2 km/h
287 05-05-2021 23:50:00 5.4 C 6 g/m*3 5.4 C 4.8 km/h
288 05-05-2021 23:55:00 5.4 C 6.07 g/m*3 5.4 C 4.8 km/h
289 06-05-2021 00:00:00 5.4 C 6.07 g/m*3 3.58 C 8.1 km/h
290 06-05-2021 00:05:00 5.7 C 6.12 g/m*3 3.56 C 9.7 km/h
291 06-05-2021 00:10:00 5.8 C 6.16 g/m*3 4.05 C 8.1 km/h
292 06-05-2021 00:15:00 5.9 C 6.13 g/m*3 3.48 C 11.3 km/h
293 06-05-2021 00:20:00 6.1 C 6.21 g/m*3 4.4 C 8.1 km/h
294 06-05-2021 00:25:00 6.2 C 6.18 g/m*3 4.52 C 8.1 km/h
295 06-05-2021 00:30:00 6.3 C 6.22 g/m*3 2.98 C 17.7 km/h
296 06-05-2021 00:35:00 6.3 C 6.14 g/m*3 2.98 C 17.7 km/h
297 06-05-2021 00:40:00 6.3 C 6.14 g/m*3 4.64 C 8.1 km/h
298 06-05-2021 00:45:00 6.2 C 6.1 g/m*3 4.98 C 6.4 km/h
299 06-05-2021 00:50:00 6.2 C 6.1 g/m*3 4.98 C 6.4 km/h
300 06-05-2021 00:55:00 6.1 C 6.06 g/m*3 6.1 C 1.6 km/h
Sensor: Nr:Datum:Temp:Abs-Feuchte:Windchill:Wind:
Aussen-T/F 301 06-05-2021 01:00:00 6 C 6.1 g/m*3 6 C 3.2 km/h
302 06-05-2021 01:05:00 5.9 C 6.06 g/m*3 5.9 C 4.8 km/h
303 06-05-2021 01:10:00 5.8 C 6.02 g/m*3 5.8 C 3.2 km/h
304 06-05-2021 01:15:00 5.7 C 5.98 g/m*3 5.7 C 4.8 km/h
305 06-05-2021 01:20:00 5.7 C 5.98 g/m*3 5.7 C 0 km/h
306 06-05-2021 01:25:00 5.6 C 6.01 g/m*3 5.6 C 0 km/h
307 06-05-2021 01:30:00 5.5 C 5.97 g/m*3 5.5 C 0 km/h
308 06-05-2021 01:35:00 5.4 C 6 g/m*3 5.4 C 0 km/h
309 06-05-2021 01:40:00 5.3 C 5.96 g/m*3 5.3 C 3.2 km/h
310 06-05-2021 01:45:00 5.2 C 5.92 g/m*3 5.2 C 1.6 km/h
311 06-05-2021 01:50:00 5.2 C 5.99 g/m*3 5.2 C 3.2 km/h
312 06-05-2021 01:55:00 5.1 C 5.95 g/m*3 5.1 C 1.6 km/h
313 06-05-2021 02:00:00 5.1 C 6.02 g/m*3 5.1 C 1.6 km/h
314 06-05-2021 02:05:00 5.1 C 6.02 g/m*3 5.1 C 1.6 km/h
315 06-05-2021 02:10:00 5.1 C 6.09 g/m*3 5.1 C 3.2 km/h
316 06-05-2021 02:15:00 5.2 C 6.13 g/m*3 5.2 C 4.8 km/h
317 06-05-2021 02:20:00 5.3 C 6.17 g/m*3 3.94 C 6.4 km/h
318 06-05-2021 02:25:00 5.3 C 6.1 g/m*3 3.94 C 6.4 km/h
319 06-05-2021 02:30:00 5.4 C 6.14 g/m*3 5.4 C 4.8 km/h
320 06-05-2021 02:35:00 5.4 C 6.14 g/m*3 5.4 C 4.8 km/h
321 06-05-2021 02:40:00 5.4 C 6.14 g/m*3 5.4 C 4.8 km/h
322 06-05-2021 02:45:00 5.4 C 6.14 g/m*3 3.58 C 8.1 km/h
323 06-05-2021 02:50:00 5.4 C 6.14 g/m*3 3.2 C 9.7 km/h
324 06-05-2021 02:55:00 5.4 C 6.14 g/m*3 5.4 C 4.8 km/h
325 06-05-2021 03:00:00 5.4 C 6.14 g/m*3 5.4 C 4.8 km/h
Sensor: Nr:Datum:Temp:Abs-Feuchte:Windchill:Wind:
Aussen-T/F 326 06-05-2021 03:05:00 5.3 C 6.03 g/m*3 5.3 C 3.2 km/h
327 06-05-2021 03:10:00 5.3 C 6.03 g/m*3 5.3 C 4.8 km/h
328 06-05-2021 03:15:00 5.2 C 5.99 g/m*3 5.2 C 0 km/h
329 06-05-2021 03:20:00 5.1 C 6.02 g/m*3 5.1 C 1.6 km/h
330 06-05-2021 03:25:00 5 C 5.98 g/m*3 5 C 1.6 km/h
331 06-05-2021 03:30:00 4.9 C 5.94 g/m*3 4.9 C 1.6 km/h
332 06-05-2021 03:35:00 4.9 C 5.94 g/m*3 4.9 C 0 km/h
333 06-05-2021 03:40:00 4.8 C 5.9 g/m*3 4.8 C 0 km/h
334 06-05-2021 03:45:00 4.7 C 5.86 g/m*3 4.7 C 0 km/h
335 06-05-2021 03:50:00 4.6 C 5.89 g/m*3 4.6 C 1.6 km/h
336 06-05-2021 03:55:00 4.6 C 5.89 g/m*3 3.13 C 6.4 km/h
337 06-05-2021 04:00:00 4.7 C 6 g/m*3 3.25 C 6.4 km/h
338 06-05-2021 04:05:00 4.9 C 6.08 g/m*3 1.97 C 12.9 km/h
339 06-05-2021 04:10:00 5.2 C 6.13 g/m*3 3.34 C 8.1 km/h
340 06-05-2021 04:15:00 5.4 C 6.21 g/m*3 2.58 C 12.9 km/h
341 06-05-2021 04:20:00 5.4 C 6.14 g/m*3 3.58 C 8.1 km/h
342 06-05-2021 04:25:00 5.4 C 6.14 g/m*3 5.4 C 4.8 km/h
343 06-05-2021 04:30:00 5.3 C 6.1 g/m*3 5.3 C 1.6 km/h
344 06-05-2021 04:35:00 5.2 C 5.99 g/m*3 5.2 C 3.2 km/h
345 06-05-2021 04:40:00 5 C 5.91 g/m*3 5 C 0 km/h
346 06-05-2021 04:45:00 4.8 C 5.9 g/m*3 4.8 C 3.2 km/h
347 06-05-2021 04:50:00 4.7 C 5.86 g/m*3 4.7 C 0 km/h
348 06-05-2021 04:55:00 4.7 C 5.93 g/m*3 4.7 C 0 km/h
349 06-05-2021 05:00:00 4.7 C 5.93 g/m*3 4.7 C 0 km/h
350 06-05-2021 05:05:00 4.6 C 5.96 g/m*3 4.6 C 0 km/h
Sensor: Nr:Datum:Temp:Abs-Feuchte:Windchill:Wind:
Aussen-T/F 351 06-05-2021 05:10:00 4.6 C 5.96 g/m*3 4.6 C 1.6 km/h
352 06-05-2021 05:15:00 4.6 C 5.96 g/m*3 4.6 C 0 km/h
353 06-05-2021 05:20:00 4.6 C 5.96 g/m*3 4.6 C 0 km/h
354 06-05-2021 05:25:00 4.6 C 5.96 g/m*3 4.6 C 4.8 km/h
355 06-05-2021 05:30:00 4.5 C 5.98 g/m*3 4.5 C 1.6 km/h
356 06-05-2021 05:35:00 4.5 C 5.98 g/m*3 4.5 C 1.6 km/h
357 06-05-2021 05:40:00 4.5 C 5.98 g/m*3 4.5 C 4.8 km/h
358 06-05-2021 05:45:00 4.5 C 5.98 g/m*3 4.5 C 1.6 km/h
359 06-05-2021 05:50:00 4.5 C 5.98 g/m*3 4.5 C 0 km/h
360 06-05-2021 05:55:00 4.4 C 5.94 g/m*3 4.4 C 3.2 km/h
361 06-05-2021 06:00:00 4.4 C 5.94 g/m*3 4.4 C 4.8 km/h
362 06-05-2021 06:05:00 4.5 C 6.05 g/m*3 4.5 C 3.2 km/h
363 06-05-2021 06:10:00 4.6 C 6.09 g/m*3 2.64 C 8.1 km/h
364 06-05-2021 06:15:00 4.7 C 6.06 g/m*3 2.37 C 9.7 km/h
365 06-05-2021 06:20:00 4.8 C 6.1 g/m*3 4.8 C 1.6 km/h
366 06-05-2021 06:25:00 4.8 C 6.1 g/m*3 4.8 C 0 km/h
367 06-05-2021 06:30:00 4.8 C 6.1 g/m*3 4.8 C 0 km/h
368 06-05-2021 06:35:00 4.9 C 6.14 g/m*3 2.99 C 8.1 km/h
369 06-05-2021 06:40:00 5 C 6.18 g/m*3 3.59 C 6.4 km/h
370 06-05-2021 06:45:00 5.1 C 6.16 g/m*3 5.1 C 3.2 km/h
371 06-05-2021 06:50:00 5.1 C 6.16 g/m*3 5.1 C 4.8 km/h
372 06-05-2021 06:55:00 5.2 C 6.2 g/m*3 5.2 C 0 km/h
373 06-05-2021 07:00:00 5.2 C 6.2 g/m*3 5.2 C 0 km/h
374 06-05-2021 07:05:00 5.2 C 6.2 g/m*3 5.2 C 4.8 km/h
375 06-05-2021 07:10:00 5.3 C 6.24 g/m*3 5.3 C 1.6 km/h
Sensor: Nr:Datum:Temp:Abs-Feuchte:Windchill:Wind:
Aussen-T/F 376 06-05-2021 07:15:00 5.4 C 6.28 g/m*3 3.2 C 9.7 km/h
377 06-05-2021 07:20:00 5.6 C 6.29 g/m*3 3.81 C 8.1 km/h
378 06-05-2021 07:25:00 5.7 C 6.33 g/m*3 3.56 C 9.7 km/h
379 06-05-2021 07:30:00 5.8 C 6.3 g/m*3 4.05 C 8.1 km/h
380 06-05-2021 07:35:00 5.9 C 6.35 g/m*3 3.8 C 9.7 km/h
381 06-05-2021 07:40:00 6 C 6.39 g/m*3 4.28 C 8.1 km/h
382 06-05-2021 07:45:00 6.1 C 6.36 g/m*3 4.4 C 8.1 km/h
383 06-05-2021 07:50:00 6.1 C 6.36 g/m*3 4.04 C 9.7 km/h
384 06-05-2021 07:55:00 6.2 C 6.4 g/m*3 4.15 C 9.7 km/h
385 06-05-2021 08:00:00 6.3 C 6.44 g/m*3 4.64 C 8.1 km/h
386 06-05-2021 08:05:00 6.4 C 6.48 g/m*3 4.75 C 8.1 km/h
387 06-05-2021 08:10:00 6.4 C 6.41 g/m*3 4.39 C 9.7 km/h
388 06-05-2021 08:15:00 6.5 C 6.45 g/m*3 4.87 C 8.1 km/h
389 06-05-2021 08:20:00 6.7 C 6.53 g/m*3 5.11 C 8.1 km/h
390 06-05-2021 08:25:00 6.8 C 6.58 g/m*3 4.87 C 9.7 km/h
391 06-05-2021 08:30:00 6.9 C 6.62 g/m*3 4.99 C 9.7 km/h
392 06-05-2021 08:35:00 7.1 C 6.63 g/m*3 5.23 C 9.7 km/h
393 06-05-2021 08:40:00 7.2 C 6.59 g/m*3 5.35 C 9.7 km/h
394 06-05-2021 08:45:00 7.3 C 6.72 g/m*3 5.81 C 8.1 km/h
395 06-05-2021 08:50:00 7.4 C 6.68 g/m*3 5.58 C 9.7 km/h
396 06-05-2021 08:55:00 7.4 C 6.68 g/m*3 5.28 C 11.3 km/h
397 06-05-2021 09:00:00 7.5 C 6.72 g/m*3 6.05 C 8.1 km/h
398 06-05-2021 09:05:00 7.6 C 6.77 g/m*3 5.53 C 11.3 km/h
399 06-05-2021 09:10:00 7.9 C 6.9 g/m*3 5.89 C 11.3 km/h
400 06-05-2021 09:15:00 8.1 C 6.82 g/m*3 6.75 C 8.1 km/h
Sensor: Nr:Datum:Temp:Abs-Feuchte:Windchill:Wind:
Aussen-T/F 401 06-05-2021 09:20:00 8.2 C 6.87 g/m*3 6.54 C 9.7 km/h
402 06-05-2021 09:25:00 8.3 C 6.83 g/m*3 6.99 C 8.1 km/h
403 06-05-2021 09:30:00 8.4 C 6.87 g/m*3 7.11 C 8.1 km/h
404 06-05-2021 09:35:00 8.5 C 6.74 g/m*3 6.13 C 14.5 km/h
405 06-05-2021 09:40:00 8.6 C 6.7 g/m*3 5.86 C 17.7 km/h
406 06-05-2021 09:45:00 8.7 C 6.66 g/m*3 6.6 C 12.9 km/h
407 06-05-2021 09:50:00 8.8 C 6.53 g/m*3 6.72 C 12.9 km/h
408 06-05-2021 09:55:00 8.9 C 6.57 g/m*3 6.85 C 12.9 km/h
409 06-05-2021 10:00:00 9.1 C 6.65 g/m*3 7.33 C 11.3 km/h
410 06-05-2021 10:05:00 9.1 C 6.48 g/m*3 6.87 C 14.5 km/h
411 06-05-2021 10:10:00 9.1 C 6.74 g/m*3 7.61 C 9.7 km/h
412 06-05-2021 10:15:00 9.2 C 6.52 g/m*3 6.99 C 14.5 km/h
413 06-05-2021 10:20:00 9.3 C 6.56 g/m*3 6.92 C 16.1 km/h
414 06-05-2021 10:25:00 9.3 C 6.47 g/m*3 7.33 C 12.9 km/h
415 06-05-2021 10:30:00 9.3 C 6.56 g/m*3 7.33 C 12.9 km/h
416 06-05-2021 10:35:00 9.5 C 6.46 g/m*3 7.36 C 14.5 km/h
417 06-05-2021 10:40:00 9.6 C 6.5 g/m*3 8.21 C 9.7 km/h
418 06-05-2021 10:45:00 9.9 C 6.44 g/m*3 7.85 C 14.5 km/h
419 06-05-2021 10:50:00 10.2 C 6.47 g/m*3 8.22 C 14.5 km/h
420 06-05-2021 10:55:00 10.3 C 6.22 g/m*3 7.53 C 22.5 km/h
421 06-05-2021 11:00:00 10.3 C 6.32 g/m*3 8.34 C 14.5 km/h
422 06-05-2021 11:05:00 10.3 C 6.03 g/m*3 8.16 C 16.1 km/h
423 06-05-2021 11:10:00 10.3 C 6.32 g/m*3 8.55 C 12.9 km/h
424 06-05-2021 11:15:00 10.6 C 6.25 g/m*3 8.71 C 14.5 km/h
425 06-05-2021 11:20:00 10.8 C 6.23 g/m*3 8.61 C 17.7 km/h
Sensor: Nr:Datum:Temp:Abs-Feuchte:Windchill:Wind:
Aussen-T/F 426 06-05-2021 11:25:00 10.9 C 5.97 g/m*3 8.58 C 19.3 km/h
427 06-05-2021 11:30:00 10.9 C 6.17 g/m*3 9.08 C 14.5 km/h
428 06-05-2021 11:35:00 11 C 6.11 g/m*3 9.02 C 16.1 km/h
429 06-05-2021 11:40:00 10.9 C 5.97 g/m*3 9.51 C 11.3 km/h
430 06-05-2021 11:45:00 11 C 5.91 g/m*3 9.02 C 16.1 km/h
431 06-05-2021 11:50:00 11.2 C 6.08 g/m*3 11.2 C 9.7 km/h
432 06-05-2021 11:55:00 11.5 C 6.09 g/m*3 11.5 C 14.5 km/h
433 06-05-2021 12:00:00 11.6 C 6.13 g/m*3 11.6 C 12.9 km/h
434 06-05-2021 12:05:00 11.4 C 5.95 g/m*3 11.4 C 14.5 km/h
435 06-05-2021 12:10:00 11.4 C 5.95 g/m*3 11.4 C 14.5 km/h
436 06-05-2021 12:15:00 11.6 C 6.03 g/m*3 11.6 C 11.3 km/h
437 06-05-2021 12:20:00 11.5 C 5.78 g/m*3 11.5 C 19.3 km/h
438 06-05-2021 12:25:00 11.6 C 6.03 g/m*3 11.6 C 17.7 km/h
439 06-05-2021 12:30:00 11.8 C 6 g/m*3 11.8 C 11.3 km/h
440 06-05-2021 12:35:00 11.8 C 6 g/m*3 11.8 C 14.5 km/h
441 06-05-2021 12:40:00 11.8 C 6.21 g/m*3 11.8 C 8.1 km/h
442 06-05-2021 12:45:00 11.7 C 6.17 g/m*3 11.7 C 14.5 km/h
443 06-05-2021 12:50:00 11.8 C 6.21 g/m*3 11.8 C 14.5 km/h
444 06-05-2021 12:55:00 11.7 C 5.96 g/m*3 11.7 C 12.9 km/h
445 06-05-2021 13:00:00 11.8 C 5.79 g/m*3 11.8 C 14.5 km/h
446 06-05-2021 13:05:00 11.9 C 5.93 g/m*3 11.9 C 12.9 km/h
447 06-05-2021 13:10:00 12 C 5.97 g/m*3 12 C 12.9 km/h
448 06-05-2021 13:15:00 11.8 C 6 g/m*3 11.8 C 16.1 km/h
449 06-05-2021 13:20:00 11.7 C 5.86 g/m*3 11.7 C 9.7 km/h
450 06-05-2021 13:25:00 11.7 C 5.96 g/m*3 11.7 C 9.7 km/h
Sensor: Nr:Datum:Temp:Abs-Feuchte:Windchill:Wind:
Aussen-T/F 451 06-05-2021 13:30:00 11.8 C 5.89 g/m*3 11.8 C 11.3 km/h
452 06-05-2021 13:35:00 11.9 C 6.25 g/m*3 11.9 C 8.1 km/h
453 06-05-2021 13:40:00 12.1 C 6.22 g/m*3 12.1 C 11.3 km/h
454 06-05-2021 13:45:00 12.2 C 6.37 g/m*3 12.2 C 9.7 km/h
455 06-05-2021 13:50:00 12.2 C 6.15 g/m*3 12.2 C 11.3 km/h
456 06-05-2021 13:55:00 12.3 C 6.08 g/m*3 12.3 C 11.3 km/h
457 06-05-2021 14:00:00 12.4 C 6.23 g/m*3 12.4 C 11.3 km/h
458 06-05-2021 14:05:00 12.7 C 6.23 g/m*3 12.7 C 9.7 km/h
459 06-05-2021 14:10:00 12.8 C 6.05 g/m*3 12.8 C 17.7 km/h
460 06-05-2021 14:15:00 12.8 C 6.27 g/m*3 12.8 C 6.4 km/h
461 06-05-2021 14:20:00 12.6 C 6.08 g/m*3 12.6 C 16.1 km/h
462 06-05-2021 14:25:00 12.3 C 6.08 g/m*3 12.3 C 11.3 km/h
463 06-05-2021 14:30:00 12 C 5.86 g/m*3 12 C 16.1 km/h
464 06-05-2021 14:35:00 11.8 C 6 g/m*3 11.8 C 14.5 km/h
465 06-05-2021 14:40:00 11.8 C 6.1 g/m*3 11.8 C 9.7 km/h
466 06-05-2021 14:45:00 11.8 C 6.21 g/m*3 11.8 C 11.3 km/h
467 06-05-2021 14:50:00 11.9 C 6.25 g/m*3 11.9 C 11.3 km/h
468 06-05-2021 14:55:00 11.9 C 6.14 g/m*3 11.9 C 14.5 km/h
469 06-05-2021 15:00:00 11.9 C 6.35 g/m*3 11.9 C 1.6 km/h
470 06-05-2021 15:05:00 11.9 C 6.35 g/m*3 11.9 C 12.9 km/h
471 06-05-2021 15:10:00 11.7 C 6.38 g/m*3 11.7 C 8.1 km/h
472 06-05-2021 15:15:00 11.4 C 6.26 g/m*3 11.4 C 11.3 km/h
473 06-05-2021 15:20:00 11.3 C 6.43 g/m*3 11.3 C 11.3 km/h
474 06-05-2021 15:25:00 11.3 C 6.53 g/m*3 11.3 C 4.8 km/h
475 06-05-2021 15:30:00 11.3 C 6.43 g/m*3 11.3 C 4.8 km/h
Sensor: Nr:Datum:Temp:Abs-Feuchte:Windchill:Wind:
Aussen-T/F 476 06-05-2021 15:35:00 11.3 C 6.73 g/m*3 11.3 C 6.4 km/h
477 06-05-2021 15:40:00 11.2 C 6.79 g/m*3 11.2 C 8.1 km/h
478 06-05-2021 15:45:00 11.1 C 7.05 g/m*3 11.1 C 6.4 km/h
479 06-05-2021 15:50:00 10.9 C 6.86 g/m*3 10.9 C 3.2 km/h
480 06-05-2021 15:55:00 10.9 C 7.26 g/m*3 10.9 C 1.6 km/h
481 06-05-2021 16:00:00 10.9 C 7.26 g/m*3 10.9 C 0 km/h
482 06-05-2021 16:05:00 10.9 C 7.26 g/m*3 10.9 C 3.2 km/h
483 06-05-2021 16:10:00 10.8 C 7.22 g/m*3 10.8 C 4.8 km/h
484 06-05-2021 16:15:00 10.7 C 7.46 g/m*3 10.7 C 3.2 km/h
485 06-05-2021 16:20:00 10.7 C 7.56 g/m*3 10.7 C 0 km/h
486 06-05-2021 16:25:00 10.6 C 7.22 g/m*3 10.6 C 1.6 km/h
487 06-05-2021 16:30:00 10.6 C 7.52 g/m*3 10.6 C 0 km/h
488 06-05-2021 16:35:00 10.5 C 7.57 g/m*3 10.5 C 3.2 km/h
489 06-05-2021 16:40:00 10.3 C 7.28 g/m*3 10.3 C 1.6 km/h
490 06-05-2021 16:45:00 10.2 C 7.42 g/m*3 10.2 C 0 km/h
491 06-05-2021 16:50:00 10.3 C 7.76 g/m*3 10.3 C 0 km/h
492 06-05-2021 16:55:00 10.3 C 7.95 g/m*3 10.3 C 0 km/h
493 06-05-2021 17:00:00 10.2 C 7.9 g/m*3 10.2 C 0 km/h
494 06-05-2021 17:05:00 10.2 C 7.9 g/m*3 10.2 C 0 km/h
495 06-05-2021 17:10:00 10 C 7.71 g/m*3 10 C 0 km/h
496 06-05-2021 17:15:00 9.9 C 7.84 g/m*3 9.9 C 0 km/h
497 06-05-2021 17:20:00 9.9 C 7.94 g/m*3 9.9 C 0 km/h
498 06-05-2021 17:25:00 9.8 C 7.89 g/m*3 9.8 C 0 km/h
499 06-05-2021 17:30:00 9.7 C 7.93 g/m*3 9.7 C 1.6 km/h
500 06-05-2021 17:35:00 9.6 C 7.88 g/m*3 9.6 C 4.8 km/h
Sensor: Nr:Datum:Temp:Abs-Feuchte:Windchill:Wind:
Aussen-T/F 501 06-05-2021 17:40:00 9.3 C 7.82 g/m*3 9.3 C 4.8 km/h
502 06-05-2021 17:45:00 9.2 C 7.77 g/m*3 9.2 C 4.8 km/h
503 06-05-2021 17:50:00 9 C 7.76 g/m*3 9 C 3.2 km/h
504 06-05-2021 17:55:00 8.8 C 7.66 g/m*3 8.8 C 1.6 km/h
505 06-05-2021 18:00:00 8.7 C 7.7 g/m*3 8.7 C 1.6 km/h
506 06-05-2021 18:05:00 8.7 C 7.7 g/m*3 8.7 C 0 km/h
507 06-05-2021 18:10:00 8.6 C 7.73 g/m*3 8.6 C 0 km/h
508 06-05-2021 18:15:00 8.6 C 7.73 g/m*3 8.6 C 0 km/h
509 06-05-2021 18:20:00 8.6 C 7.73 g/m*3 8.6 C 0 km/h
510 06-05-2021 18:25:00 8.5 C 7.68 g/m*3 8.5 C 0 km/h
511 06-05-2021 18:30:00 8.4 C 7.72 g/m*3 8.4 C 0 km/h
512 06-05-2021 18:35:00 8.4 C 7.72 g/m*3 8.4 C 0 km/h
513 06-05-2021 18:40:00 8.4 C 7.72 g/m*3 8.4 C 0 km/h
514 06-05-2021 18:45:00 8.4 C 7.72 g/m*3 8.4 C 0 km/h
515 06-05-2021 18:50:00 8.2 C 7.54 g/m*3 8.2 C 1.6 km/h
516 06-05-2021 18:55:00 8.1 C 7.57 g/m*3 8.1 C 0 km/h
517 06-05-2021 19:00:00 8.1 C 7.57 g/m*3 8.1 C 0 km/h
518 06-05-2021 19:05:00 8 C 7.52 g/m*3 8 C 0 km/h
519 06-05-2021 19:10:00 8 C 7.61 g/m*3 8 C 0 km/h
520 06-05-2021 19:15:00 8 C 7.61 g/m*3 8 C 0 km/h
521 06-05-2021 19:20:00 7.9 C 7.56 g/m*3 7.9 C 0 km/h
522 06-05-2021 19:25:00 7.9 C 7.56 g/m*3 7.9 C 0 km/h
523 06-05-2021 19:30:00 7.8 C 7.51 g/m*3 7.8 C 0 km/h
524 06-05-2021 19:35:00 7.8 C 7.51 g/m*3 7.8 C 0 km/h
525 06-05-2021 19:40:00 7.8 C 7.51 g/m*3 7.8 C 3.2 km/h
Sensor: Nr:Datum:Temp:Abs-Feuchte:Windchill:Wind:
Aussen-T/F 526 06-05-2021 19:45:00 7.8 C 7.51 g/m*3 7.8 C 0 km/h
527 06-05-2021 19:50:00 7.7 C 7.46 g/m*3 7.7 C 0 km/h
528 06-05-2021 19:55:00 7.6 C 7.41 g/m*3 7.6 C 0 km/h
529 06-05-2021 20:00:00 7.5 C 7.36 g/m*3 7.5 C 0 km/h
530 06-05-2021 20:05:00 7.6 C 7.41 g/m*3 7.6 C 0 km/h
531 06-05-2021 20:10:00 7.6 C 7.41 g/m*3 7.6 C 0 km/h
532 06-05-2021 20:15:00 7.5 C 7.36 g/m*3 7.5 C 1.6 km/h
533 06-05-2021 20:20:00 7.4 C 7.32 g/m*3 7.4 C 0 km/h
534 06-05-2021 20:25:00 7.4 C 7.32 g/m*3 7.4 C 0 km/h
535 06-05-2021 20:30:00 7.4 C 7.4 g/m*3 7.4 C 0 km/h
536 06-05-2021 20:35:00 7.4 C 7.32 g/m*3 7.4 C 0 km/h
537 06-05-2021 20:40:00 7.4 C 7.4 g/m*3 7.4 C 0 km/h
538 06-05-2021 20:45:00 7.3 C 7.35 g/m*3 7.3 C 0 km/h
539 06-05-2021 20:50:00 7.3 C 7.35 g/m*3 7.3 C 0 km/h
540 06-05-2021 20:55:00 7.3 C 7.35 g/m*3 7.3 C 1.6 km/h
541 06-05-2021 21:00:00 7.2 C 7.3 g/m*3 7.2 C 3.2 km/h
542 06-05-2021 21:05:00 7.2 C 7.3 g/m*3 7.2 C 1.6 km/h
543 06-05-2021 21:10:00 7.2 C 7.3 g/m*3 7.2 C 0 km/h
544 06-05-2021 21:15:00 7.1 C 7.25 g/m*3 7.1 C 0 km/h
545 06-05-2021 21:20:00 7.1 C 7.25 g/m*3 7.1 C 3.2 km/h
546 06-05-2021 21:25:00 7.1 C 7.25 g/m*3 7.1 C 0 km/h
547 06-05-2021 21:30:00 7.1 C 7.25 g/m*3 7.1 C 3.2 km/h
548 06-05-2021 21:35:00 7 C 7.21 g/m*3 7 C 0 km/h
549 06-05-2021 21:40:00 7 C 7.21 g/m*3 7 C 3.2 km/h
550 06-05-2021 21:45:00 6.9 C 7.24 g/m*3 6.9 C 4.8 km/h
Sensor: Nr:Datum:Temp:Abs-Feuchte:Windchill:Wind:
Aussen-T/F 551 06-05-2021 21:50:00 6.9 C 7.16 g/m*3 6.9 C 3.2 km/h
552 06-05-2021 21:55:00 6.9 C 7.16 g/m*3 6.9 C 1.6 km/h
553 06-05-2021 22:00:00 6.9 C 7.24 g/m*3 6.9 C 3.2 km/h
554 06-05-2021 22:05:00 6.8 C 7.19 g/m*3 6.8 C 1.6 km/h
555 06-05-2021 22:10:00 6.8 C 7.19 g/m*3 6.8 C 1.6 km/h
556 06-05-2021 22:15:00 6.8 C 7.19 g/m*3 6.8 C 4.8 km/h
557 06-05-2021 22:20:00 6.8 C 7.19 g/m*3 6.8 C 4.8 km/h
558 06-05-2021 22:25:00 6.8 C 7.19 g/m*3 6.8 C 4.8 km/h
559 06-05-2021 22:30:00 6.8 C 7.19 g/m*3 6.8 C 3.2 km/h
560 06-05-2021 22:35:00 6.8 C 7.19 g/m*3 6.8 C 4.8 km/h
561 06-05-2021 22:40:00 6.8 C 7.19 g/m*3 6.8 C 3.2 km/h
562 06-05-2021 22:45:00 6.7 C 7.14 g/m*3 6.7 C 1.6 km/h
563 06-05-2021 22:50:00 6.7 C 7.14 g/m*3 6.7 C 3.2 km/h
564 06-05-2021 22:55:00 6.7 C 7.14 g/m*3 6.7 C 4.8 km/h
565 06-05-2021 23:00:00 6.7 C 7.14 g/m*3 6.7 C 3.2 km/h
566 06-05-2021 23:05:00 6.7 C 7.14 g/m*3 6.7 C 1.6 km/h
567 06-05-2021 23:10:00 6.7 C 7.14 g/m*3 6.7 C 1.6 km/h
568 06-05-2021 23:15:00 6.7 C 7.14 g/m*3 6.7 C 1.6 km/h
569 06-05-2021 23:20:00 6.7 C 7.14 g/m*3 6.7 C 3.2 km/h
570 06-05-2021 23:25:00 6.7 C 7.14 g/m*3 6.7 C 1.6 km/h
571 06-05-2021 23:30:00 6.6 C 7.17 g/m*3 6.6 C 1.6 km/h
572 06-05-2021 23:35:00 6.6 C 7.17 g/m*3 6.6 C 3.2 km/h
573 06-05-2021 23:40:00 6.6 C 7.17 g/m*3 6.6 C 1.6 km/h
574 06-05-2021 23:45:00 6.6 C 7.17 g/m*3 6.6 C 0 km/h
575 06-05-2021 23:50:00 6.6 C 7.1 g/m*3 6.6 C 1.6 km/h
Sensor: Nr:Datum:Temp:Abs-Feuchte:Windchill:Wind:
Aussen-T/F 576 06-05-2021 23:55:00 6.6 C 7.17 g/m*3 6.6 C 1.6 km/h
577 07-05-2021 00:00:00 6.5 C 7.12 g/m*3 6.5 C 3.2 km/h
578 07-05-2021 00:05:00 6.5 C 7.12 g/m*3 6.5 C 0 km/h
579 07-05-2021 00:10:00 6.5 C 7.12 g/m*3 6.5 C 0 km/h
580 07-05-2021 00:15:00 6.5 C 7.12 g/m*3 6.5 C 0 km/h
581 07-05-2021 00:20:00 6.6 C 7.17 g/m*3 6.6 C 0 km/h
582 07-05-2021 00:25:00 6.6 C 7.17 g/m*3 6.6 C 0 km/h
583 07-05-2021 00:30:00 6.6 C 7.17 g/m*3 6.6 C 0 km/h
584 07-05-2021 00:35:00 6.6 C 7.17 g/m*3 6.6 C 0 km/h
585 07-05-2021 00:40:00 6.6 C 7.17 g/m*3 6.6 C 3.2 km/h
586 07-05-2021 00:45:00 6.6 C 7.17 g/m*3 6.6 C 1.6 km/h
587 07-05-2021 00:50:00 6.6 C 7.17 g/m*3 6.6 C 1.6 km/h
588 07-05-2021 00:55:00 6.6 C 7.17 g/m*3 6.6 C 3.2 km/h
589 07-05-2021 01:00:00 6.6 C 7.17 g/m*3 6.6 C 0 km/h
590 07-05-2021 01:05:00 6.6 C 7.17 g/m*3 6.6 C 0 km/h
591 07-05-2021 01:10:00 6.6 C 7.17 g/m*3 6.6 C 0 km/h
592 07-05-2021 01:15:00 6.6 C 7.17 g/m*3 6.6 C 3.2 km/h
593 07-05-2021 01:20:00 6.6 C 7.17 g/m*3 6.6 C 0 km/h
594 07-05-2021 01:25:00 6.6 C 7.17 g/m*3 6.6 C 3.2 km/h
595 07-05-2021 01:30:00 6.6 C 7.17 g/m*3 6.6 C 0 km/h
596 07-05-2021 01:35:00 6.6 C 7.17 g/m*3 6.6 C 0 km/h
597 07-05-2021 01:40:00 6.6 C 7.17 g/m*3 6.6 C 1.6 km/h
598 07-05-2021 01:45:00 6.6 C 7.17 g/m*3 6.6 C 0 km/h
599 07-05-2021 01:50:00 6.5 C 7.12 g/m*3 6.5 C 1.6 km/h
600 07-05-2021 01:55:00 6.5 C 7.12 g/m*3 6.5 C 0 km/h
Sensor: Nr:Datum:Temp:Abs-Feuchte:Windchill:Wind:
Aussen-T/F 601 07-05-2021 02:00:00 6.5 C 7.12 g/m*3 6.5 C 0 km/h
602 07-05-2021 02:05:00 6.5 C 7.12 g/m*3 6.5 C 4.8 km/h
603 07-05-2021 02:10:00 6.4 C 7.08 g/m*3 6.4 C 4.8 km/h
604 07-05-2021 02:15:00 6.4 C 7.08 g/m*3 6.4 C 1.6 km/h
605 07-05-2021 02:20:00 6.4 C 7.08 g/m*3 6.4 C 1.6 km/h
606 07-05-2021 02:25:00 6.4 C 7.08 g/m*3 6.4 C 1.6 km/h
607 07-05-2021 02:30:00 6.4 C 7.08 g/m*3 6.4 C 3.2 km/h
608 07-05-2021 02:35:00 6.4 C 7.08 g/m*3 6.4 C 1.6 km/h
609 07-05-2021 02:40:00 6.4 C 7.08 g/m*3 6.4 C 3.2 km/h
610 07-05-2021 02:45:00 6.4 C 7.08 g/m*3 3.55 C 14.5 km/h
611 07-05-2021 02:50:00 6.3 C 7.03 g/m*3 4.64 C 8.1 km/h
612 07-05-2021 02:55:00 6.1 C 6.87 g/m*3 4.4 C 8.1 km/h
613 07-05-2021 03:00:00 6.1 C 6.87 g/m*3 4.04 C 9.7 km/h
614 07-05-2021 03:05:00 6 C 6.82 g/m*3 4.28 C 8.1 km/h
615 07-05-2021 03:10:00 5.9 C 6.78 g/m*3 4.17 C 8.1 km/h
616 07-05-2021 03:15:00 5.9 C 6.78 g/m*3 5.9 C 4.8 km/h
617 07-05-2021 03:20:00 5.9 C 6.78 g/m*3 5.9 C 1.6 km/h
618 07-05-2021 03:25:00 5.9 C 6.78 g/m*3 5.9 C 0 km/h
619 07-05-2021 03:30:00 5.8 C 6.73 g/m*3 5.8 C 1.6 km/h
620 07-05-2021 03:35:00 5.8 C 6.73 g/m*3 5.8 C 1.6 km/h
621 07-05-2021 03:40:00 5.7 C 6.69 g/m*3 5.7 C 3.2 km/h
622 07-05-2021 03:45:00 5.7 C 6.69 g/m*3 5.7 C 4.8 km/h
623 07-05-2021 03:50:00 5.5 C 6.6 g/m*3 5.5 C 4.8 km/h
624 07-05-2021 03:55:00 5.4 C 6.56 g/m*3 5.4 C 1.6 km/h
625 07-05-2021 04:00:00 5.3 C 6.52 g/m*3 5.3 C 3.2 km/h
Sensor: Nr:Datum:Temp:Abs-Feuchte:Windchill:Wind:
Aussen-T/F 626 07-05-2021 04:05:00 5.1 C 6.43 g/m*3 5.1 C 3.2 km/h
627 07-05-2021 04:10:00 4.9 C 6.35 g/m*3 4.9 C 1.6 km/h
628 07-05-2021 04:15:00 4.7 C 6.26 g/m*3 4.7 C 4.8 km/h
629 07-05-2021 04:20:00 4.6 C 6.22 g/m*3 4.6 C 3.2 km/h
630 07-05-2021 04:25:00 4.5 C 6.18 g/m*3 4.5 C 3.2 km/h
631 07-05-2021 04:30:00 4.4 C 6.14 g/m*3 4.4 C 0 km/h
632 07-05-2021 04:35:00 4.4 C 6.14 g/m*3 4.4 C 0 km/h
633 07-05-2021 04:40:00 4.4 C 6.14 g/m*3 4.4 C 0 km/h
634 07-05-2021 04:45:00 4.4 C 6.14 g/m*3 4.4 C 0 km/h
635 07-05-2021 04:50:00 4.4 C 6.2 g/m*3 4.4 C 0 km/h
636 07-05-2021 04:55:00 4.4 C 6.2 g/m*3 4.4 C 1.6 km/h
637 07-05-2021 05:00:00 4.5 C 6.24 g/m*3 4.5 C 1.6 km/h
638 07-05-2021 05:05:00 4.6 C 6.29 g/m*3 4.6 C 4.8 km/h
639 07-05-2021 05:10:00 4.7 C 6.33 g/m*3 4.7 C 4.8 km/h
640 07-05-2021 05:15:00 4.8 C 6.37 g/m*3 4.8 C 4.8 km/h
641 07-05-2021 05:20:00 4.8 C 6.37 g/m*3 4.8 C 0 km/h
642 07-05-2021 05:25:00 4.9 C 6.48 g/m*3 4.9 C 3.2 km/h
643 07-05-2021 05:30:00 4.9 C 6.41 g/m*3 4.9 C 3.2 km/h
644 07-05-2021 05:35:00 4.9 C 6.41 g/m*3 4.9 C 0 km/h
645 07-05-2021 05:40:00 4.8 C 6.37 g/m*3 4.8 C 0 km/h
646 07-05-2021 05:45:00 4.7 C 6.33 g/m*3 4.7 C 3.2 km/h
647 07-05-2021 05:50:00 4.6 C 6.29 g/m*3 4.6 C 1.6 km/h
648 07-05-2021 05:55:00 4.4 C 6.2 g/m*3 4.4 C 3.2 km/h
649 07-05-2021 06:00:00 4.3 C 6.16 g/m*3 4.3 C 1.6 km/h
650 07-05-2021 06:05:00 4.2 C 6.12 g/m*3 4.2 C 4.8 km/h
Sensor: Nr:Datum:Temp:Abs-Feuchte:Windchill:Wind:
Aussen-T/F 651 07-05-2021 06:10:00 4.1 C 6.08 g/m*3 4.1 C 3.2 km/h
652 07-05-2021 06:15:00 3.9 C 6 g/m*3 3.9 C 3.2 km/h
653 07-05-2021 06:20:00 3.8 C 5.96 g/m*3 3.8 C 3.2 km/h
654 07-05-2021 06:25:00 3.8 C 5.96 g/m*3 3.8 C 3.2 km/h
655 07-05-2021 06:30:00 3.7 C 5.92 g/m*3 3.7 C 3.2 km/h
656 07-05-2021 06:35:00 3.7 C 5.92 g/m*3 2.09 C 6.4 km/h
657 07-05-2021 06:40:00 3.6 C 5.88 g/m*3 3.6 C 3.2 km/h
658 07-05-2021 06:45:00 3.6 C 5.88 g/m*3 3.6 C 0 km/h
659 07-05-2021 06:50:00 3.6 C 5.88 g/m*3 3.6 C 1.6 km/h
660 07-05-2021 06:55:00 3.6 C 5.88 g/m*3 3.6 C 0 km/h
661 07-05-2021 07:00:00 3.5 C 5.84 g/m*3 3.5 C 0 km/h
662 07-05-2021 07:05:00 3.5 C 5.84 g/m*3 3.5 C 0 km/h
663 07-05-2021 07:10:00 3.5 C 5.84 g/m*3 3.5 C 1.6 km/h
664 07-05-2021 07:15:00 3.6 C 5.88 g/m*3 3.6 C 0 km/h
665 07-05-2021 07:20:00 3.6 C 5.88 g/m*3 3.6 C 1.6 km/h
666 07-05-2021 07:25:00 3.6 C 5.88 g/m*3 3.6 C 3.2 km/h
667 07-05-2021 07:30:00 3.6 C 5.88 g/m*3 3.6 C 1.6 km/h
668 07-05-2021 07:35:00 3.7 C 5.92 g/m*3 3.7 C 1.6 km/h
669 07-05-2021 07:40:00 3.8 C 6.02 g/m*3 2.21 C 6.4 km/h
670 07-05-2021 07:45:00 3.9 C 6.06 g/m*3 2.32 C 6.4 km/h
671 07-05-2021 07:50:00 4.1 C 6.14 g/m*3 4.1 C 3.2 km/h
672 07-05-2021 07:55:00 4.1 C 6.14 g/m*3 4.1 C 4.8 km/h
673 07-05-2021 08:00:00 4.2 C 6.19 g/m*3 4.2 C 4.8 km/h
674 07-05-2021 08:05:00 4.2 C 6.19 g/m*3 4.2 C 4.8 km/h
675 07-05-2021 08:10:00 4.3 C 6.23 g/m*3 2.78 C 6.4 km/h
Sensor: Nr:Datum:Temp:Abs-Feuchte:Windchill:Wind:
Aussen-T/F 676 07-05-2021 08:15:00 4.4 C 6.27 g/m*3 2.9 C 6.4 km/h
677 07-05-2021 08:20:00 4.4 C 6.2 g/m*3 4.4 C 0 km/h
678 07-05-2021 08:25:00 4.5 C 6.31 g/m*3 4.5 C 4.8 km/h
679 07-05-2021 08:30:00 4.6 C 6.35 g/m*3 2.64 C 8.1 km/h
680 07-05-2021 08:35:00 4.7 C 6.39 g/m*3 3.25 C 6.4 km/h
681 07-05-2021 08:40:00 4.8 C 6.44 g/m*3 3.36 C 6.4 km/h
682 07-05-2021 08:45:00 4.9 C 6.48 g/m*3 3.48 C 6.4 km/h
683 07-05-2021 08:50:00 5.1 C 6.5 g/m*3 3.71 C 6.4 km/h
684 07-05-2021 08:55:00 5.2 C 6.54 g/m*3 2.96 C 9.7 km/h
685 07-05-2021 09:00:00 5.2 C 6.54 g/m*3 2.63 C 11.3 km/h
686 07-05-2021 09:05:00 5.3 C 6.52 g/m*3 3.46 C 8.1 km/h
687 07-05-2021 09:10:00 5.4 C 6.49 g/m*3 4.06 C 6.4 km/h
688 07-05-2021 09:15:00 5.7 C 6.62 g/m*3 3.23 C 11.3 km/h
689 07-05-2021 09:20:00 5.9 C 6.63 g/m*3 3.8 C 9.7 km/h
690 07-05-2021 09:25:00 6.2 C 6.69 g/m*3 3.56 C 12.9 km/h
691 07-05-2021 09:30:00 6.4 C 6.71 g/m*3 4.39 C 9.7 km/h
692 07-05-2021 09:35:00 6.6 C 6.79 g/m*3 5.44 C 6.4 km/h
693 07-05-2021 09:40:00 6.8 C 6.81 g/m*3 6.8 C 4.8 km/h
694 07-05-2021 09:45:00 7.1 C 6.86 g/m*3 4.65 C 12.9 km/h
695 07-05-2021 09:50:00 7.2 C 6.99 g/m*3 7.2 C 4.8 km/h
696 07-05-2021 09:55:00 7.4 C 6.92 g/m*3 5.93 C 8.1 km/h
697 07-05-2021 10:00:00 7.5 C 6.88 g/m*3 5.41 C 11.3 km/h
698 07-05-2021 10:05:00 7.6 C 6.77 g/m*3 5.53 C 11.3 km/h
699 07-05-2021 10:10:00 7.8 C 6.86 g/m*3 5.77 C 11.3 km/h
700 07-05-2021 10:15:00 8 C 6.86 g/m*3 5.75 C 12.9 km/h
Sensor: Nr:Datum:Temp:Abs-Feuchte:Windchill:Wind:
Aussen-T/F 701 07-05-2021 10:20:00 8.2 C 6.87 g/m*3 5.99 C 12.9 km/h
702 07-05-2021 10:25:00 8.3 C 6.74 g/m*3 6.37 C 11.3 km/h
703 07-05-2021 10:30:00 8.3 C 6.74 g/m*3 6.12 C 12.9 km/h
704 07-05-2021 10:35:00 8.1 C 6.66 g/m*3 4.89 C 20.9 km/h
705 07-05-2021 10:40:00 7.4 C 6.44 g/m*3 4.78 C 14.5 km/h
706 07-05-2021 10:45:00 6.8 C 6.42 g/m*3 4.29 C 12.9 km/h
707 07-05-2021 10:50:00 6.4 C 6.41 g/m*3 5.21 C 6.4 km/h
708 07-05-2021 10:55:00 6.3 C 6.51 g/m*3 4.27 C 9.7 km/h
709 07-05-2021 11:00:00 6.3 C 6.51 g/m*3 4.27 C 9.7 km/h
710 07-05-2021 11:05:00 6.4 C 6.63 g/m*3 4.39 C 9.7 km/h
711 07-05-2021 11:10:00 6.7 C 6.84 g/m*3 4.44 C 11.3 km/h
712 07-05-2021 11:15:00 6.9 C 6.7 g/m*3 3.94 C 16.1 km/h
713 07-05-2021 11:20:00 6.9 C 6.54 g/m*3 3.94 C 16.1 km/h
714 07-05-2021 11:25:00 6.9 C 6.47 g/m*3 4.41 C 12.9 km/h
715 07-05-2021 11:30:00 7 C 6.43 g/m*3 3.67 C 19.3 km/h
716 07-05-2021 11:35:00 7.1 C 6.47 g/m*3 5.23 C 9.7 km/h
717 07-05-2021 11:40:00 7.2 C 6.52 g/m*3 4.77 C 12.9 km/h
718 07-05-2021 11:45:00 7.2 C 6.44 g/m*3 5.04 C 11.3 km/h
719 07-05-2021 11:50:00 7.2 C 6.36 g/m*3 4.53 C 14.5 km/h
720 07-05-2021 11:55:00 7.4 C 6.44 g/m*3 4.78 C 14.5 km/h
721 07-05-2021 12:00:00 7.5 C 6.32 g/m*3 4.3 C 19.3 km/h
722 07-05-2021 12:05:00 7.4 C 6.28 g/m*3 5.28 C 11.3 km/h
723 07-05-2021 12:10:00 7.4 C 6.28 g/m*3 5.58 C 9.7 km/h
724 07-05-2021 12:15:00 7.4 C 6.36 g/m*3 5.28 C 11.3 km/h
725 07-05-2021 12:20:00 7.4 C 6.28 g/m*3 5.28 C 11.3 km/h
Sensor: Nr:Datum:Temp:Abs-Feuchte:Windchill:Wind:
Aussen-T/F 726 07-05-2021 12:25:00 7.4 C 6.44 g/m*3 3.68 C 24.1 km/h
727 07-05-2021 12:30:00 7.4 C 6.36 g/m*3 3.68 C 24.1 km/h
728 07-05-2021 12:35:00 7.4 C 6.36 g/m*3 5.02 C 12.9 km/h
729 07-05-2021 12:40:00 7.4 C 6.44 g/m*3 4.78 C 14.5 km/h
730 07-05-2021 12:45:00 7.3 C 6.24 g/m*3 4.05 C 19.3 km/h
731 07-05-2021 12:50:00 7.3 C 6.4 g/m*3 3.13 C 29 km/h
732 07-05-2021 12:55:00 7.2 C 6.36 g/m*3 3 C 29 km/h
733 07-05-2021 13:00:00 7.3 C 6.32 g/m*3 5.47 C 9.7 km/h
734 07-05-2021 13:05:00 7.3 C 6.32 g/m*3 6.25 C 6.4 km/h
735 07-05-2021 13:10:00 7.3 C 6.24 g/m*3 3.87 C 20.9 km/h
736 07-05-2021 13:15:00 7.2 C 6.12 g/m*3 4.31 C 16.1 km/h
737 07-05-2021 13:20:00 7.2 C 6.2 g/m*3 5.04 C 11.3 km/h
738 07-05-2021 13:25:00 7.2 C 6.2 g/m*3 4.77 C 12.9 km/h
739 07-05-2021 13:30:00 7.2 C 6.28 g/m*3 4.77 C 12.9 km/h
740 07-05-2021 13:35:00 7.3 C 6.32 g/m*3 5.16 C 11.3 km/h
741 07-05-2021 13:40:00 7.5 C 6.24 g/m*3 4.9 C 14.5 km/h
742 07-05-2021 13:45:00 7.6 C 6.2 g/m*3 4.81 C 16.1 km/h
743 07-05-2021 13:50:00 7.7 C 6.08 g/m*3 5.38 C 12.9 km/h
744 07-05-2021 13:55:00 7.7 C 6 g/m*3 5.15 C 14.5 km/h
745 07-05-2021 14:00:00 7.8 C 6.04 g/m*3 6.06 C 9.7 km/h
746 07-05-2021 14:05:00 8.1 C 6.16 g/m*3 5.23 C 17.7 km/h
747 07-05-2021 14:10:00 8.4 C 6.11 g/m*3 6.24 C 12.9 km/h
748 07-05-2021 14:15:00 8.5 C 6.06 g/m*3 6.36 C 12.9 km/h
749 07-05-2021 14:20:00 8.6 C 6.1 g/m*3 6.25 C 14.5 km/h
750 07-05-2021 14:25:00 8.7 C 5.97 g/m*3 6.17 C 16.1 km/h
Sensor: Nr:Datum:Temp:Abs-Feuchte:Windchill:Wind:
Aussen-T/F 751 07-05-2021 14:30:00 8.9 C 5.96 g/m*3 6.85 C 12.9 km/h
752 07-05-2021 14:35:00 9.2 C 5.8 g/m*3 6.79 C 16.1 km/h
753 07-05-2021 14:40:00 9.5 C 6.01 g/m*3 7.36 C 14.5 km/h
754 07-05-2021 14:45:00 9.7 C 5.99 g/m*3 7.23 C 17.7 km/h
755 07-05-2021 14:50:00 9.7 C 5.9 g/m*3 7.82 C 12.9 km/h
756 07-05-2021 14:55:00 9.5 C 5.92 g/m*3 7.36 C 14.5 km/h
757 07-05-2021 15:00:00 9.4 C 6.06 g/m*3 7.7 C 11.3 km/h
758 07-05-2021 15:05:00 9.5 C 6.1 g/m*3 7.58 C 12.9 km/h
759 07-05-2021 15:10:00 9.5 C 6.01 g/m*3 8.09 C 9.7 km/h
760 07-05-2021 15:15:00 9.5 C 6.01 g/m*3 7.58 C 12.9 km/h
761 07-05-2021 15:20:00 9.6 C 5.59 g/m*3 7.7 C 12.9 km/h
762 07-05-2021 15:25:00 9.7 C 5.81 g/m*3 7.23 C 17.7 km/h
763 07-05-2021 15:30:00 9.8 C 5.85 g/m*3 7.04 C 20.9 km/h
764 07-05-2021 15:35:00 9.9 C 5.79 g/m*3 7.85 C 14.5 km/h
765 07-05-2021 15:40:00 10.1 C 5.67 g/m*3 8.54 C 11.3 km/h
766 07-05-2021 15:45:00 10.2 C 5.71 g/m*3 9.22 C 8.1 km/h
767 07-05-2021 15:50:00 10.6 C 6.05 g/m*3 8.36 C 17.7 km/h
768 07-05-2021 15:55:00 11.1 C 5.84 g/m*3 11.1 C 12.9 km/h
769 07-05-2021 16:00:00 11.6 C 5.61 g/m*3 11.6 C 12.9 km/h
770 07-05-2021 16:05:00 11.9 C 5.61 g/m*3 11.9 C 14.5 km/h
771 07-05-2021 16:10:00 12.2 C 5.72 g/m*3 12.2 C 17.7 km/h
772 07-05-2021 16:15:00 12.4 C 5.57 g/m*3 12.4 C 14.5 km/h
773 07-05-2021 16:20:00 12.6 C 5.31 g/m*3 12.6 C 12.9 km/h
774 07-05-2021 16:25:00 12.9 C 5.75 g/m*3 12.9 C 16.1 km/h
775 07-05-2021 16:30:00 13.1 C 5.36 g/m*3 13.1 C 14.5 km/h
Sensor: Nr:Datum:Temp:Abs-Feuchte:Windchill:Wind:
Aussen-T/F 776 07-05-2021 16:35:00 13.2 C 5.4 g/m*3 13.2 C 12.9 km/h
777 07-05-2021 16:40:00 13.3 C 5.55 g/m*3 13.3 C 11.3 km/h
778 07-05-2021 16:45:00 13.5 C 5.26 g/m*3 13.5 C 9.7 km/h
779 07-05-2021 16:50:00 13.3 C 5.55 g/m*3 13.3 C 11.3 km/h
780 07-05-2021 16:55:00 13.3 C 5.55 g/m*3 13.3 C 9.7 km/h
781 07-05-2021 17:00:00 13.2 C 5.17 g/m*3 13.2 C 16.1 km/h
782 07-05-2021 17:05:00 13.1 C 5.48 g/m*3 13.1 C 11.3 km/h
783 07-05-2021 17:10:00 13.3 C 5.43 g/m*3 13.3 C 8.1 km/h
784 07-05-2021 17:15:00 13.5 C 5.61 g/m*3 13.5 C 11.3 km/h
785 07-05-2021 17:20:00 13.5 C 5.5 g/m*3 13.5 C 3.2 km/h
786 07-05-2021 17:25:00 13.4 C 5.46 g/m*3 13.4 C 12.9 km/h
787 07-05-2021 17:30:00 13.7 C 5.92 g/m*3 13.7 C 9.7 km/h
788 07-05-2021 17:35:00 13.9 C 5.75 g/m*3 13.9 C 8.1 km/h
789 07-05-2021 17:40:00 13.6 C 5.18 g/m*3 13.6 C 12.9 km/h
790 07-05-2021 17:45:00 13.3 C 5.43 g/m*3 13.3 C 11.3 km/h
791 07-05-2021 17:50:00 13.3 C 5.43 g/m*3 13.3 C 11.3 km/h
792 07-05-2021 17:55:00 13.2 C 5.4 g/m*3 13.2 C 12.9 km/h
793 07-05-2021 18:00:00 13.1 C 5.36 g/m*3 13.1 C 12.9 km/h
794 07-05-2021 18:05:00 13.2 C 5.74 g/m*3 13.2 C 11.3 km/h
795 07-05-2021 18:10:00 13.3 C 5.55 g/m*3 13.3 C 8.1 km/h
796 07-05-2021 18:15:00 13.3 C 5.43 g/m*3 13.3 C 9.7 km/h
797 07-05-2021 18:20:00 13.4 C 5.7 g/m*3 13.4 C 12.9 km/h
798 07-05-2021 18:25:00 13.5 C 5.5 g/m*3 13.5 C 8.1 km/h
799 07-05-2021 18:30:00 13.3 C 5.43 g/m*3 13.3 C 6.4 km/h
800 07-05-2021 18:35:00 13.2 C 5.74 g/m*3 13.2 C 3.2 km/h
Sensor: Nr:Datum:Temp:Abs-Feuchte:Windchill:Wind:
Aussen-T/F 801 07-05-2021 18:40:00 13.1 C 5.48 g/m*3 13.1 C 9.7 km/h
802 07-05-2021 18:45:00 12.9 C 5.41 g/m*3 12.9 C 6.4 km/h
803 07-05-2021 18:50:00 12.9 C 5.41 g/m*3 12.9 C 3.2 km/h
804 07-05-2021 18:55:00 12.9 C 5.41 g/m*3 12.9 C 8.1 km/h
805 07-05-2021 19:00:00 12.6 C 5.42 g/m*3 12.6 C 8.1 km/h
806 07-05-2021 19:05:00 12.6 C 5.53 g/m*3 12.6 C 4.8 km/h
807 07-05-2021 19:10:00 12.7 C 5.45 g/m*3 12.7 C 4.8 km/h
808 07-05-2021 19:15:00 12.7 C 5.45 g/m*3 12.7 C 6.4 km/h
809 07-05-2021 19:20:00 12.5 C 5.28 g/m*3 12.5 C 6.4 km/h
810 07-05-2021 19:25:00 12.2 C 5.5 g/m*3 12.2 C 3.2 km/h
811 07-05-2021 19:30:00 12 C 5.44 g/m*3 12 C 4.8 km/h
812 07-05-2021 19:35:00 12 C 5.44 g/m*3 12 C 1.6 km/h
813 07-05-2021 19:40:00 11.9 C 5.3 g/m*3 11.9 C 3.2 km/h
814 07-05-2021 19:45:00 12 C 5.54 g/m*3 12 C 1.6 km/h
815 07-05-2021 19:50:00 12 C 5.33 g/m*3 12 C 1.6 km/h
816 07-05-2021 19:55:00 11.9 C 5.3 g/m*3 11.9 C 1.6 km/h
817 07-05-2021 20:00:00 12 C 5.33 g/m*3 12 C 0 km/h
818 07-05-2021 20:05:00 12 C 5.33 g/m*3 12 C 0 km/h
819 07-05-2021 20:10:00 11.8 C 5.26 g/m*3 11.8 C 0 km/h
820 07-05-2021 20:15:00 11.8 C 6.21 g/m*3 11.8 C 0 km/h
821 07-05-2021 20:20:00 11.6 C 6.44 g/m*3 11.6 C 4.8 km/h
822 07-05-2021 20:25:00 11.3 C 6.63 g/m*3 11.3 C 4.8 km/h
823 07-05-2021 20:30:00 10.8 C 6.42 g/m*3 10.8 C 4.8 km/h
824 07-05-2021 20:35:00 10.3 C 6.32 g/m*3 9.72 C 6.4 km/h
825 07-05-2021 20:40:00 9.8 C 6.03 g/m*3 9.14 C 6.4 km/h
Sensor: Nr:Datum:Temp:Abs-Feuchte:Windchill:Wind:
Aussen-T/F 826 07-05-2021 20:45:00 9.4 C 6.06 g/m*3 8.68 C 6.4 km/h
827 07-05-2021 20:50:00 9.1 C 6.03 g/m*3 9.1 C 4.8 km/h
828 07-05-2021 20:55:00 8.8 C 6.01 g/m*3 8.8 C 4.8 km/h
829 07-05-2021 21:00:00 8.6 C 6.1 g/m*3 8.6 C 4.8 km/h
830 07-05-2021 21:05:00 8.4 C 6.11 g/m*3 8.4 C 4.8 km/h
831 07-05-2021 21:10:00 8.3 C 6.15 g/m*3 8.3 C 4.8 km/h
832 07-05-2021 21:15:00 8.2 C 6.11 g/m*3 7.29 C 6.4 km/h
833 07-05-2021 21:20:00 8.1 C 6.24 g/m*3 8.1 C 4.8 km/h
834 07-05-2021 21:25:00 8 C 6.28 g/m*3 8 C 3.2 km/h
835 07-05-2021 21:30:00 7.9 C 6.24 g/m*3 7.9 C 4.8 km/h
836 07-05-2021 21:35:00 7.8 C 6.28 g/m*3 7.8 C 4.8 km/h
837 07-05-2021 21:40:00 7.8 C 6.28 g/m*3 7.8 C 4.8 km/h
838 07-05-2021 21:45:00 7.7 C 6.32 g/m*3 7.7 C 3.2 km/h
839 07-05-2021 21:50:00 7.7 C 6.41 g/m*3 7.7 C 1.6 km/h
840 07-05-2021 21:55:00 7.6 C 6.44 g/m*3 7.6 C 1.6 km/h
841 07-05-2021 22:00:00 7.6 C 6.44 g/m*3 7.6 C 0 km/h
842 07-05-2021 22:05:00 7.5 C 6.48 g/m*3 7.5 C 0 km/h
843 07-05-2021 22:10:00 7.4 C 6.44 g/m*3 7.4 C 0 km/h
844 07-05-2021 22:15:00 7.3 C 6.4 g/m*3 7.3 C 0 km/h
845 07-05-2021 22:20:00 7.2 C 6.44 g/m*3 7.2 C 0 km/h
846 07-05-2021 22:25:00 7.1 C 6.4 g/m*3 7.1 C 0 km/h
847 07-05-2021 22:30:00 6.9 C 6.31 g/m*3 6.9 C 0 km/h
848 07-05-2021 22:35:00 6.8 C 6.27 g/m*3 6.8 C 0 km/h
849 07-05-2021 22:40:00 6.7 C 6.23 g/m*3 6.7 C 0 km/h
850 07-05-2021 22:45:00 6.5 C 6.22 g/m*3 6.5 C 0 km/h
Sensor: Nr:Datum:Temp:Abs-Feuchte:Windchill:Wind:
Aussen-T/F 851 07-05-2021 22:50:00 6.3 C 6.14 g/m*3 6.3 C 0 km/h
852 07-05-2021 22:55:00 6.2 C 6.1 g/m*3 6.2 C 0 km/h
853 07-05-2021 23:00:00 6.1 C 6.14 g/m*3 6.1 C 0 km/h
854 07-05-2021 23:05:00 6 C 6.1 g/m*3 6 C 0 km/h
855 07-05-2021 23:10:00 5.9 C 6.13 g/m*3 5.9 C 0 km/h
856 07-05-2021 23:15:00 5.8 C 6.16 g/m*3 5.8 C 0 km/h
857 07-05-2021 23:20:00 5.8 C 6.16 g/m*3 5.8 C 0 km/h
858 07-05-2021 23:25:00 5.7 C 6.12 g/m*3 5.7 C 0 km/h
859 07-05-2021 23:30:00 5.6 C 6.08 g/m*3 5.6 C 0 km/h
860 07-05-2021 23:35:00 5.5 C 6.04 g/m*3 5.5 C 0 km/h
861 07-05-2021 23:40:00 5.4 C 6 g/m*3 5.4 C 0 km/h
862 07-05-2021 23:45:00 5.2 C 5.92 g/m*3 5.2 C 0 km/h
863 07-05-2021 23:50:00 5.1 C 5.88 g/m*3 5.1 C 0 km/h
864 07-05-2021 23:55:00 4.9 C 5.81 g/m*3 4.9 C 0 km/h
865 08-05-2021 00:00:00 4.8 C 5.77 g/m*3 4.8 C 0 km/h
866 08-05-2021 00:05:00 4.7 C 5.73 g/m*3 4.7 C 0 km/h
867 08-05-2021 00:10:00 4.6 C 5.76 g/m*3 4.6 C 0 km/h
868 08-05-2021 00:15:00 4.4 C 5.68 g/m*3 4.4 C 0 km/h
869 08-05-2021 00:20:00 4.4 C 5.68 g/m*3 4.4 C 0 km/h
870 08-05-2021 00:25:00 4.3 C 5.71 g/m*3 4.3 C 0 km/h
871 08-05-2021 00:30:00 4.3 C 5.71 g/m*3 4.3 C 0 km/h
872 08-05-2021 00:35:00 4.2 C 5.67 g/m*3 4.2 C 0 km/h
873 08-05-2021 00:40:00 4.1 C 5.63 g/m*3 4.1 C 0 km/h
874 08-05-2021 00:45:00 3.9 C 5.56 g/m*3 3.9 C 0 km/h
875 08-05-2021 00:50:00 3.8 C 5.46 g/m*3 3.8 C 0 km/h
Sensor: Nr:Datum:Temp:Abs-Feuchte:Windchill:Wind:
Aussen-T/F 876 08-05-2021 00:55:00 3.8 C 5.52 g/m*3 3.8 C 0 km/h
877 08-05-2021 01:00:00 3.7 C 5.48 g/m*3 3.7 C 0 km/h
878 08-05-2021 01:05:00 3.7 C 5.48 g/m*3 3.7 C 0 km/h
879 08-05-2021 01:10:00 3.6 C 5.51 g/m*3 3.6 C 0 km/h
880 08-05-2021 01:15:00 3.6 C 5.51 g/m*3 3.6 C 0 km/h
881 08-05-2021 01:20:00 3.6 C 5.51 g/m*3 3.6 C 0 km/h
882 08-05-2021 01:25:00 3.6 C 5.51 g/m*3 3.6 C 0 km/h
883 08-05-2021 01:30:00 3.6 C 5.51 g/m*3 3.6 C 0 km/h
884 08-05-2021 01:35:00 3.5 C 5.47 g/m*3 3.5 C 0 km/h
885 08-05-2021 01:40:00 3.4 C 5.44 g/m*3 3.4 C 0 km/h
886 08-05-2021 01:45:00 3.4 C 5.44 g/m*3 3.4 C 0 km/h
887 08-05-2021 01:50:00 3.3 C 5.4 g/m*3 3.3 C 0 km/h
888 08-05-2021 01:55:00 3.3 C 5.4 g/m*3 3.3 C 0 km/h
889 08-05-2021 02:00:00 3.2 C 5.42 g/m*3 3.2 C 0 km/h
890 08-05-2021 02:05:00 3.1 C 5.39 g/m*3 3.1 C 0 km/h
891 08-05-2021 02:10:00 3 C 5.29 g/m*3 3 C 0 km/h
892 08-05-2021 02:15:00 2.9 C 5.32 g/m*3 2.9 C 0 km/h
893 08-05-2021 02:20:00 2.8 C 5.28 g/m*3 2.8 C 0 km/h
894 08-05-2021 02:25:00 2.7 C 5.24 g/m*3 2.7 C 0 km/h
895 08-05-2021 02:30:00 2.7 C 5.24 g/m*3 2.7 C 0 km/h
896 08-05-2021 02:35:00 2.7 C 5.3 g/m*3 2.7 C 3.2 km/h
897 08-05-2021 02:40:00 2.8 C 5.28 g/m*3 2.8 C 0 km/h
898 08-05-2021 02:45:00 2.7 C 5.24 g/m*3 2.7 C 0 km/h
899 08-05-2021 02:50:00 2.6 C 5.21 g/m*3 2.6 C 0 km/h
900 08-05-2021 02:55:00 2.4 C 5.14 g/m*3 2.4 C 0 km/h
Sensor: Nr:Datum:Temp:Abs-Feuchte:Windchill:Wind:
Aussen-T/F 901 08-05-2021 03:00:00 2.3 C 5.1 g/m*3 2.3 C 0 km/h
902 08-05-2021 03:05:00 2.3 C 5.1 g/m*3 2.3 C 1.6 km/h
903 08-05-2021 03:10:00 2.2 C 5.07 g/m*3 2.2 C 0 km/h
904 08-05-2021 03:15:00 2.1 C 5.04 g/m*3 2.1 C 0 km/h
905 08-05-2021 03:20:00 2.1 C 5.09 g/m*3 2.1 C 0 km/h
906 08-05-2021 03:25:00 1.9 C 5.02 g/m*3 1.9 C 0 km/h
907 08-05-2021 03:30:00 1.9 C 5.02 g/m*3 1.9 C 0 km/h
908 08-05-2021 03:35:00 1.8 C 4.99 g/m*3 1.8 C 0 km/h
909 08-05-2021 03:40:00 1.8 C 4.99 g/m*3 1.8 C 0 km/h
910 08-05-2021 03:45:00 1.7 C 4.95 g/m*3 1.7 C 0 km/h
911 08-05-2021 03:50:00 1.7 C 4.95 g/m*3 1.7 C 0 km/h
912 08-05-2021 03:55:00 1.6 C 4.92 g/m*3 1.6 C 0 km/h
913 08-05-2021 04:00:00 1.6 C 4.97 g/m*3 1.6 C 0 km/h
914 08-05-2021 04:05:00 1.6 C 4.97 g/m*3 1.6 C 0 km/h
915 08-05-2021 04:10:00 1.6 C 4.97 g/m*3 1.6 C 0 km/h
916 08-05-2021 04:15:00 1.5 C 4.94 g/m*3 1.5 C 0 km/h
917 08-05-2021 04:20:00 1.4 C 4.91 g/m*3 1.4 C 0 km/h
918 08-05-2021 04:25:00 1.4 C 4.91 g/m*3 1.4 C 0 km/h
919 08-05-2021 04:30:00 1.3 C 4.87 g/m*3 1.3 C 0 km/h
920 08-05-2021 04:35:00 1.3 C 4.87 g/m*3 1.3 C 0 km/h
921 08-05-2021 04:40:00 1.3 C 4.87 g/m*3 1.3 C 0 km/h
922 08-05-2021 04:45:00 1.3 C 4.87 g/m*3 1.3 C 0 km/h
923 08-05-2021 04:50:00 1.3 C 4.93 g/m*3 1.3 C 0 km/h
924 08-05-2021 04:55:00 1.3 C 4.93 g/m*3 1.3 C 0 km/h
925 08-05-2021 05:00:00 1.2 C 4.84 g/m*3 1.2 C 0 km/h
Sensor: Nr:Datum:Temp:Abs-Feuchte:Windchill:Wind:
Aussen-T/F 926 08-05-2021 05:05:00 1.2 C 4.84 g/m*3 1.2 C 0 km/h
927 08-05-2021 05:10:00 1.2 C 4.89 g/m*3 1.2 C 0 km/h
928 08-05-2021 05:15:00 1.1 C 4.86 g/m*3 1.1 C 0 km/h
929 08-05-2021 05:20:00 1.1 C 4.86 g/m*3 1.1 C 0 km/h
930 08-05-2021 05:25:00 1 C 4.83 g/m*3 1 C 0 km/h
931 08-05-2021 05:30:00 1 C 4.83 g/m*3 1 C 0 km/h
932 08-05-2021 05:35:00 1 C 4.83 g/m*3 1 C 0 km/h
933 08-05-2021 05:40:00 0.9 C 4.79 g/m*3 0.9 C 0 km/h
934 08-05-2021 05:45:00 0.9 C 4.79 g/m*3 0.9 C 0 km/h
935 08-05-2021 05:50:00 0.8 C 4.76 g/m*3 0.8 C 0 km/h
936 08-05-2021 05:55:00 0.8 C 4.76 g/m*3 0.8 C 0 km/h
937 08-05-2021 06:00:00 0.8 C 4.76 g/m*3 0.8 C 0 km/h
938 08-05-2021 06:05:00 0.8 C 4.76 g/m*3 0.8 C 0 km/h
939 08-05-2021 06:10:00 0.7 C 4.73 g/m*3 0.7 C 0 km/h
940 08-05-2021 06:15:00 0.7 C 4.73 g/m*3 0.7 C 0 km/h
941 08-05-2021 06:20:00 0.7 C 4.73 g/m*3 0.7 C 0 km/h
942 08-05-2021 06:25:00 0.7 C 4.73 g/m*3 0.7 C 0 km/h
943 08-05-2021 06:30:00 0.7 C 4.73 g/m*3 0.7 C 0 km/h
944 08-05-2021 06:35:00 0.7 C 4.78 g/m*3 0.7 C 0 km/h
945 08-05-2021 06:40:00 0.7 C 4.78 g/m*3 0.7 C 0 km/h
946 08-05-2021 06:45:00 0.8 C 4.81 g/m*3 0.8 C 0 km/h
947 08-05-2021 06:50:00 0.8 C 4.81 g/m*3 0.8 C 0 km/h
948 08-05-2021 06:55:00 0.9 C 4.85 g/m*3 0.9 C 0 km/h
949 08-05-2021 07:00:00 1 C 4.88 g/m*3 1 C 0 km/h
950 08-05-2021 07:05:00 1.2 C 4.95 g/m*3 1.2 C 0 km/h
Sensor: Nr:Datum:Temp:Abs-Feuchte:Windchill:Wind:
Aussen-T/F 951 08-05-2021 07:10:00 1.2 C 5 g/m*3 1.2 C 0 km/h
952 08-05-2021 07:15:00 1.2 C 4.95 g/m*3 1.2 C 0 km/h
953 08-05-2021 07:20:00 1.3 C 4.98 g/m*3 1.3 C 0 km/h
954 08-05-2021 07:25:00 1.3 C 4.98 g/m*3 1.3 C 0 km/h
955 08-05-2021 07:30:00 1.3 C 4.98 g/m*3 1.3 C 0 km/h
956 08-05-2021 07:35:00 1.4 C 5.01 g/m*3 1.4 C 0 km/h
957 08-05-2021 07:40:00 1.4 C 5.01 g/m*3 1.4 C 0 km/h
958 08-05-2021 07:45:00 1.6 C 5.14 g/m*3 1.6 C 0 km/h
959 08-05-2021 07:50:00 1.7 C 5.17 g/m*3 1.7 C 0 km/h
960 08-05-2021 07:55:00 1.9 C 5.24 g/m*3 1.9 C 0 km/h
961 08-05-2021 08:00:00 2.1 C 5.31 g/m*3 2.1 C 0 km/h
962 08-05-2021 08:05:00 2.2 C 5.35 g/m*3 2.2 C 0 km/h
963 08-05-2021 08:10:00 2.4 C 5.42 g/m*3 2.4 C 0 km/h
964 08-05-2021 08:15:00 2.6 C 5.5 g/m*3 2.6 C 0 km/h
965 08-05-2021 08:20:00 2.8 C 5.57 g/m*3 2.8 C 1.6 km/h
966 08-05-2021 08:25:00 2.9 C 5.67 g/m*3 2.9 C 0 km/h
967 08-05-2021 08:30:00 3.1 C 5.69 g/m*3 3.1 C 0 km/h
968 08-05-2021 08:35:00 3.3 C 5.82 g/m*3 3.3 C 0 km/h
969 08-05-2021 08:40:00 3.6 C 5.94 g/m*3 3.6 C 0 km/h
970 08-05-2021 08:45:00 3.8 C 6.02 g/m*3 3.8 C 0 km/h
971 08-05-2021 08:50:00 4 C 6.1 g/m*3 4 C 0 km/h
972 08-05-2021 08:55:00 4.2 C 6.19 g/m*3 4.2 C 0 km/h
973 08-05-2021 09:00:00 4.4 C 6.27 g/m*3 4.4 C 0 km/h
974 08-05-2021 09:05:00 4.7 C 6.33 g/m*3 4.7 C 0 km/h
975 08-05-2021 09:10:00 4.9 C 6.41 g/m*3 4.9 C 0 km/h
Sensor: Nr:Datum:Temp:Abs-Feuchte:Windchill:Wind:
Aussen-T/F 976 08-05-2021 09:15:00 5.2 C 6.54 g/m*3 5.2 C 0 km/h
977 08-05-2021 09:20:00 5.4 C 6.63 g/m*3 5.4 C 0 km/h
978 08-05-2021 09:25:00 5.7 C 6.69 g/m*3 5.7 C 0 km/h
979 08-05-2021 09:30:00 6.1 C 6.79 g/m*3 6.1 C 0 km/h
980 08-05-2021 09:35:00 6.4 C 6.78 g/m*3 6.4 C 0 km/h
981 08-05-2021 09:40:00 6.7 C 6.76 g/m*3 6.7 C 0 km/h
982 08-05-2021 09:45:00 7 C 6.74 g/m*3 7 C 0 km/h
983 08-05-2021 09:50:00 7.3 C 6.72 g/m*3 7.3 C 0 km/h
984 08-05-2021 09:55:00 7.7 C 6.81 g/m*3 7.7 C 0 km/h
985 08-05-2021 10:00:00 8 C 6.7 g/m*3 8 C 0 km/h
986 08-05-2021 10:05:00 8.3 C 6.74 g/m*3 8.3 C 0 km/h
987 08-05-2021 10:10:00 8.6 C 6.79 g/m*3 8.6 C 0 km/h
988 08-05-2021 10:15:00 8.8 C 6.7 g/m*3 8.8 C 0 km/h
989 08-05-2021 10:20:00 9.1 C 6.92 g/m*3 9.1 C 0 km/h
990 08-05-2021 10:25:00 9.3 C 6.83 g/m*3 9.3 C 0 km/h
991 08-05-2021 10:30:00 9.6 C 6.87 g/m*3 9.6 C 4.8 km/h
992 08-05-2021 10:35:00 9.8 C 6.96 g/m*3 9.8 C 4.8 km/h
993 08-05-2021 10:40:00 9.9 C 6.91 g/m*3 9.9 C 0 km/h
994 08-05-2021 10:45:00 10.2 C 7.04 g/m*3 10.2 C 0 km/h
995 08-05-2021 10:50:00 10.4 C 7.04 g/m*3 10.4 C 4.8 km/h
996 08-05-2021 10:55:00 10.8 C 7.22 g/m*3 9.93 C 8.1 km/h
997 08-05-2021 11:00:00 11.3 C 7.14 g/m*3 11.3 C 6.4 km/h
998 08-05-2021 11:05:00 11.6 C 7.17 g/m*3 11.6 C 3.2 km/h
999 08-05-2021 11:10:00 11.9 C 6.99 g/m*3 11.9 C 6.4 km/h
1000 08-05-2021 11:15:00 12.3 C 6.62 g/m*3 12.3 C 4.8 km/h
Sensor: Nr:Datum:Temp:Abs-Feuchte:Windchill:Wind:
Aussen-T/F 1001 08-05-2021 11:20:00 12.7 C 6.46 g/m*3 12.7 C 4.8 km/h
1002 08-05-2021 11:25:00 13.2 C 6.54 g/m*3 13.2 C 4.8 km/h
1003 08-05-2021 11:30:00 13.7 C 6.51 g/m*3 13.7 C 11.3 km/h
1004 08-05-2021 11:35:00 13.8 C 6.08 g/m*3 13.8 C 12.9 km/h
1005 08-05-2021 11:40:00 14 C 6.15 g/m*3 14 C 8.1 km/h
1006 08-05-2021 11:45:00 14.2 C 6.47 g/m*3 14.2 C 3.2 km/h
1007 08-05-2021 11:50:00 14.4 C 6.43 g/m*3 14.4 C 6.4 km/h
1008 08-05-2021 11:55:00 14.6 C 6.38 g/m*3 14.6 C 8.1 km/h
1009 08-05-2021 12:00:00 14.6 C 6.13 g/m*3 14.6 C 6.4 km/h
1010 08-05-2021 12:05:00 14.7 C 6.67 g/m*3 14.7 C 4.8 km/h
1011 08-05-2021 12:10:00 14.8 C 6.46 g/m*3 14.8 C 11.3 km/h
1012 08-05-2021 12:15:00 14.9 C 5.86 g/m*3 14.9 C 12.9 km/h
1013 08-05-2021 12:20:00 15.1 C 6.19 g/m*3 15.1 C 14.5 km/h
1014 08-05-2021 12:25:00 15.1 C 6.06 g/m*3 15.1 C 11.3 km/h
1015 08-05-2021 12:30:00 15.2 C 5.97 g/m*3 15.2 C 11.3 km/h
1016 08-05-2021 12:35:00 15.4 C 6.04 g/m*3 15.4 C 8.1 km/h
1017 08-05-2021 12:40:00 15.5 C 6.08 g/m*3 15.5 C 9.7 km/h
1018 08-05-2021 12:45:00 15.6 C 5.72 g/m*3 15.6 C 11.3 km/h
1019 08-05-2021 12:50:00 15.7 C 6.15 g/m*3 15.7 C 8.1 km/h
1020 08-05-2021 12:55:00 15.8 C 6.19 g/m*3 15.8 C 6.4 km/h
1021 08-05-2021 13:00:00 15.9 C 5.96 g/m*3 15.9 C 11.3 km/h
1022 08-05-2021 13:05:00 16.1 C 6.58 g/m*3 16.1 C 9.7 km/h
1023 08-05-2021 13:10:00 15.9 C 6.09 g/m*3 15.9 C 14.5 km/h
1024 08-05-2021 13:15:00 15.9 C 6.23 g/m*3 15.9 C 11.3 km/h
1025 08-05-2021 13:20:00 15.8 C 5.92 g/m*3 15.8 C 11.3 km/h
Sensor: Nr:Datum:Temp:Abs-Feuchte:Windchill:Wind:
Aussen-T/F 1026 08-05-2021 13:25:00 15.9 C 5.96 g/m*3 15.9 C 9.7 km/h
1027 08-05-2021 13:30:00 16 C 6.27 g/m*3 16 C 8.1 km/h
1028 08-05-2021 13:35:00 16.2 C 6.21 g/m*3 16.2 C 9.7 km/h
1029 08-05-2021 13:40:00 16.2 C 6.07 g/m*3 16.2 C 12.9 km/h
1030 08-05-2021 13:45:00 16.2 C 6.21 g/m*3 16.2 C 8.1 km/h
1031 08-05-2021 13:50:00 16.3 C 6.38 g/m*3 16.3 C 4.8 km/h
1032 08-05-2021 13:55:00 16.4 C 6.14 g/m*3 16.4 C 11.3 km/h
1033 08-05-2021 14:00:00 16.4 C 6.42 g/m*3 16.4 C 12.9 km/h
1034 08-05-2021 14:05:00 16.6 C 6.36 g/m*3 16.6 C 9.7 km/h
1035 08-05-2021 14:10:00 16.7 C 6.4 g/m*3 16.7 C 14.5 km/h
1036 08-05-2021 14:15:00 16.8 C 6.43 g/m*3 16.8 C 17.7 km/h
1037 08-05-2021 14:20:00 16.7 C 6.68 g/m*3 16.7 C 17.7 km/h
1038 08-05-2021 14:25:00 16.8 C 6.58 g/m*3 16.8 C 6.4 km/h
1039 08-05-2021 14:30:00 16.8 C 6.72 g/m*3 16.8 C 11.3 km/h
1040 08-05-2021 14:35:00 16.9 C 6.62 g/m*3 16.9 C 19.3 km/h
1041 08-05-2021 14:40:00 16.9 C 6.62 g/m*3 16.9 C 14.5 km/h
1042 08-05-2021 14:45:00 16.9 C 6.47 g/m*3 16.9 C 19.3 km/h
1043 08-05-2021 14:50:00 17.1 C 6.7 g/m*3 17.1 C 11.3 km/h
1044 08-05-2021 14:55:00 17.1 C 6.55 g/m*3 17.1 C 11.3 km/h
1045 08-05-2021 15:00:00 17.1 C 6.7 g/m*3 17.1 C 14.5 km/h
1046 08-05-2021 15:05:00 17.1 C 6.84 g/m*3 17.1 C 6.4 km/h
1047 08-05-2021 15:10:00 17.2 C 6.74 g/m*3 17.2 C 8.1 km/h
1048 08-05-2021 15:15:00 17.2 C 6.88 g/m*3 17.2 C 9.7 km/h
1049 08-05-2021 15:20:00 17.1 C 6.99 g/m*3 17.1 C 6.4 km/h
1050 08-05-2021 15:25:00 16.9 C 6.76 g/m*3 16.9 C 16.1 km/h
Sensor: Nr:Datum:Temp:Abs-Feuchte:Windchill:Wind:
Aussen-T/F 1051 08-05-2021 15:30:00 16.8 C 7.01 g/m*3 16.8 C 14.5 km/h
1052 08-05-2021 15:35:00 16.7 C 6.82 g/m*3 16.7 C 14.5 km/h
1053 08-05-2021 15:40:00 16.8 C 7.01 g/m*3 16.8 C 11.3 km/h
1054 08-05-2021 15:45:00 16.9 C 6.76 g/m*3 16.9 C 9.7 km/h
1055 08-05-2021 15:50:00 17 C 7.09 g/m*3 17 C 8.1 km/h
1056 08-05-2021 15:55:00 17 C 6.95 g/m*3 17 C 6.4 km/h
1057 08-05-2021 16:00:00 17.1 C 6.99 g/m*3 17.1 C 6.4 km/h
1058 08-05-2021 16:05:00 16.9 C 6.76 g/m*3 16.9 C 8.1 km/h
1059 08-05-2021 16:10:00 16.9 C 7.05 g/m*3 16.9 C 1.6 km/h
1060 08-05-2021 16:15:00 16.9 C 7.05 g/m*3 16.9 C 8.1 km/h
1061 08-05-2021 16:20:00 16.8 C 7.15 g/m*3 16.8 C 1.6 km/h
1062 08-05-2021 16:25:00 16.8 C 7.01 g/m*3 16.8 C 8.1 km/h
1063 08-05-2021 16:30:00 16.8 C 7.29 g/m*3 16.8 C 4.8 km/h
1064 08-05-2021 16:35:00 16.8 C 7.29 g/m*3 16.8 C 6.4 km/h
1065 08-05-2021 16:40:00 16.9 C 7.34 g/m*3 16.9 C 3.2 km/h
1066 08-05-2021 16:45:00 17 C 7.09 g/m*3 17 C 6.4 km/h
1067 08-05-2021 16:50:00 17.1 C 7.13 g/m*3 17.1 C 6.4 km/h
1068 08-05-2021 16:55:00 17.2 C 7.47 g/m*3 17.2 C 6.4 km/h
1069 08-05-2021 17:00:00 17.2 C 7.32 g/m*3 17.2 C 16.1 km/h
1070 08-05-2021 17:05:00 17.3 C 7.37 g/m*3 17.3 C 4.8 km/h
1071 08-05-2021 17:10:00 17.3 C 7.37 g/m*3 17.3 C 12.9 km/h
1072 08-05-2021 17:15:00 17.4 C 7.56 g/m*3 17.4 C 12.9 km/h
1073 08-05-2021 17:20:00 17.5 C 7.6 g/m*3 17.5 C 9.7 km/h
1074 08-05-2021 17:25:00 17.6 C 7.65 g/m*3 17.6 C 4.8 km/h
1075 08-05-2021 17:30:00 17.6 C 7.65 g/m*3 17.6 C 9.7 km/h
Sensor: Nr:Datum:Temp:Abs-Feuchte:Windchill:Wind:
Aussen-T/F 1076 08-05-2021 17:35:00 17.6 C 7.65 g/m*3 17.6 C 11.3 km/h
1077 08-05-2021 17:40:00 17.6 C 7.65 g/m*3 17.6 C 4.8 km/h
1078 08-05-2021 17:45:00 17.6 C 7.65 g/m*3 17.6 C 1.6 km/h
1079 08-05-2021 17:50:00 17.8 C 7.59 g/m*3 17.8 C 6.4 km/h
1080 08-05-2021 17:55:00 18 C 7.68 g/m*3 18 C 3.2 km/h
1081 08-05-2021 18:00:00 18.2 C 7.77 g/m*3 18.2 C 1.6 km/h
1082 08-05-2021 18:05:00 18.3 C 7.97 g/m*3 18.3 C 6.4 km/h
1083 08-05-2021 18:10:00 18.3 C 7.97 g/m*3 18.3 C 6.4 km/h
1084 08-05-2021 18:15:00 18.4 C 7.86 g/m*3 18.4 C 6.4 km/h
1085 08-05-2021 18:20:00 18.6 C 8.28 g/m*3 18.6 C 6.4 km/h
1086 08-05-2021 18:25:00 18.7 C 8.01 g/m*3 18.7 C 6.4 km/h
1087 08-05-2021 18:30:00 18.7 C 8.33 g/m*3 18.7 C 6.4 km/h
1088 08-05-2021 18:35:00 18.8 C 8.05 g/m*3 18.8 C 6.4 km/h
1089 08-05-2021 18:40:00 18.9 C 8.26 g/m*3 18.9 C 4.8 km/h
1090 08-05-2021 18:45:00 18.8 C 8.37 g/m*3 18.8 C 8.1 km/h
1091 08-05-2021 18:50:00 18.7 C 7.84 g/m*3 18.7 C 4.8 km/h
1092 08-05-2021 18:55:00 18.6 C 8.59 g/m*3 18.6 C 1.6 km/h
1093 08-05-2021 19:00:00 18.5 C 8.23 g/m*3 18.5 C 1.6 km/h
1094 08-05-2021 19:05:00 18.4 C 8.02 g/m*3 18.4 C 4.8 km/h
1095 08-05-2021 19:10:00 18.3 C 7.97 g/m*3 18.3 C 0 km/h
1096 08-05-2021 19:15:00 18.3 C 8.76 g/m*3 18.3 C 0 km/h
1097 08-05-2021 19:20:00 18.3 C 8.13 g/m*3 18.3 C 4.8 km/h
1098 08-05-2021 19:25:00 18.3 C 9.07 g/m*3 18.3 C 0 km/h
1099 08-05-2021 19:30:00 18.2 C 8.55 g/m*3 18.2 C 3.2 km/h
1100 08-05-2021 19:35:00 18.1 C 8.96 g/m*3 18.1 C 3.2 km/h
Sensor: Nr:Datum:Temp:Abs-Feuchte:Windchill:Wind:
Aussen-T/F 1101 08-05-2021 19:40:00 18.1 C 9.43 g/m*3 18.1 C 1.6 km/h
1102 08-05-2021 19:45:00 17.8 C 9.26 g/m*3 17.8 C 1.6 km/h
1103 08-05-2021 19:50:00 17.4 C 9.04 g/m*3 17.4 C 0 km/h
1104 08-05-2021 19:55:00 17.2 C 9.37 g/m*3 17.2 C 3.2 km/h
1105 08-05-2021 20:00:00 16.8 C 9.15 g/m*3 16.8 C 4.8 km/h
1106 08-05-2021 20:05:00 16.5 C 9.13 g/m*3 16.5 C 4.8 km/h
1107 08-05-2021 20:10:00 16.2 C 9.24 g/m*3 16.2 C 6.4 km/h
1108 08-05-2021 20:15:00 15.8 C 9.15 g/m*3 15.8 C 4.8 km/h
1109 08-05-2021 20:20:00 15.5 C 9.12 g/m*3 15.5 C 6.4 km/h
1110 08-05-2021 20:25:00 15.3 C 9.01 g/m*3 15.3 C 4.8 km/h
1111 08-05-2021 20:30:00 15 C 9.1 g/m*3 15 C 4.8 km/h
1112 08-05-2021 20:35:00 14.8 C 8.99 g/m*3 14.8 C 6.4 km/h
1113 08-05-2021 20:40:00 14.6 C 9.01 g/m*3 14.6 C 4.8 km/h
1114 08-05-2021 20:45:00 14.4 C 9.02 g/m*3 14.4 C 4.8 km/h
1115 08-05-2021 20:50:00 14.3 C 8.97 g/m*3 14.3 C 4.8 km/h
1116 08-05-2021 20:55:00 14.2 C 9.04 g/m*3 14.2 C 4.8 km/h
1117 08-05-2021 21:00:00 14.1 C 8.98 g/m*3 14.1 C 4.8 km/h
1118 08-05-2021 21:05:00 14 C 9.05 g/m*3 14 C 4.8 km/h
1119 08-05-2021 21:10:00 13.9 C 8.99 g/m*3 13.9 C 4.8 km/h
1120 08-05-2021 21:15:00 13.9 C 8.99 g/m*3 13.9 C 4.8 km/h
1121 08-05-2021 21:20:00 13.8 C 8.94 g/m*3 13.8 C 4.8 km/h
1122 08-05-2021 21:25:00 13.8 C 9.06 g/m*3 13.8 C 4.8 km/h
1123 08-05-2021 21:30:00 13.7 C 9 g/m*3 13.7 C 3.2 km/h
1124 08-05-2021 21:35:00 13.7 C 9.12 g/m*3 13.7 C 4.8 km/h
1125 08-05-2021 21:40:00 13.6 C 8.94 g/m*3 13.6 C 4.8 km/h
Sensor: Nr:Datum:Temp:Abs-Feuchte:Windchill:Wind:
Aussen-T/F 1126 08-05-2021 21:45:00 13.6 C 9.06 g/m*3 13.6 C 0 km/h
1127 08-05-2021 21:50:00 13.6 C 9.06 g/m*3 13.6 C 4.8 km/h
1128 08-05-2021 21:55:00 13.5 C 9.01 g/m*3 13.5 C 4.8 km/h
1129 08-05-2021 22:00:00 13.4 C 8.95 g/m*3 13.4 C 3.2 km/h
1130 08-05-2021 22:05:00 13.4 C 8.95 g/m*3 13.4 C 4.8 km/h
1131 08-05-2021 22:10:00 13.4 C 8.95 g/m*3 13.4 C 4.8 km/h
1132 08-05-2021 22:15:00 13.3 C 8.9 g/m*3 13.3 C 0 km/h
1133 08-05-2021 22:20:00 13.3 C 8.9 g/m*3 13.3 C 0 km/h
1134 08-05-2021 22:25:00 13.2 C 8.84 g/m*3 13.2 C 0 km/h
1135 08-05-2021 22:30:00 13.1 C 8.79 g/m*3 13.1 C 0 km/h
1136 08-05-2021 22:35:00 13 C 8.85 g/m*3 13 C 0 km/h
1137 08-05-2021 22:40:00 12.9 C 8.79 g/m*3 12.9 C 0 km/h
1138 08-05-2021 22:45:00 12.9 C 8.79 g/m*3 12.9 C 0 km/h
1139 08-05-2021 22:50:00 12.8 C 8.74 g/m*3 12.8 C 0 km/h
1140 08-05-2021 22:55:00 12.8 C 8.74 g/m*3 12.8 C 4.8 km/h
1141 08-05-2021 23:00:00 12.7 C 8.68 g/m*3 12.7 C 4.8 km/h
1142 08-05-2021 23:05:00 12.6 C 8.74 g/m*3 12.6 C 6.4 km/h
1143 08-05-2021 23:10:00 12.4 C 8.63 g/m*3 12.4 C 4.8 km/h
1144 08-05-2021 23:15:00 12.3 C 8.58 g/m*3 12.3 C 3.2 km/h
1145 08-05-2021 23:20:00 12.3 C 8.69 g/m*3 12.3 C 4.8 km/h
1146 08-05-2021 23:25:00 12.2 C 8.63 g/m*3 12.2 C 4.8 km/h
1147 08-05-2021 23:30:00 12.1 C 8.69 g/m*3 12.1 C 4.8 km/h
1148 08-05-2021 23:35:00 12 C 8.63 g/m*3 12 C 3.2 km/h
1149 08-05-2021 23:40:00 11.9 C 8.58 g/m*3 11.9 C 4.8 km/h
1150 08-05-2021 23:45:00 11.8 C 8.53 g/m*3 11.8 C 0 km/h
Sensor: Nr:Datum:Temp:Abs-Feuchte:Windchill:Wind:
Aussen-T/F 1151 08-05-2021 23:50:00 11.7 C 8.58 g/m*3 11.7 C 3.2 km/h
1152 08-05-2021 23:55:00 11.7 C 8.58 g/m*3 11.7 C 4.8 km/h
1153 09-05-2021 00:00:00 11.6 C 8.63 g/m*3 11.6 C 3.2 km/h
1154 09-05-2021 00:05:00 11.4 C 8.52 g/m*3 11.4 C 3.2 km/h
1155 09-05-2021 00:10:00 11.4 C 8.52 g/m*3 11.4 C 3.2 km/h
1156 09-05-2021 00:15:00 11.3 C 8.47 g/m*3 11.3 C 1.6 km/h
1157 09-05-2021 00:20:00 11.2 C 8.41 g/m*3 11.2 C 3.2 km/h
1158 09-05-2021 00:25:00 11.1 C 8.36 g/m*3 11.1 C 1.6 km/h
1159 09-05-2021 00:30:00 10.9 C 8.26 g/m*3 10.9 C 0 km/h
1160 09-05-2021 00:35:00 10.8 C 8.3 g/m*3 10.8 C 3.2 km/h
1161 09-05-2021 00:40:00 10.8 C 8.3 g/m*3 10.8 C 0 km/h
1162 09-05-2021 00:45:00 10.7 C 8.35 g/m*3 10.7 C 3.2 km/h
1163 09-05-2021 00:50:00 10.7 C 8.35 g/m*3 10.7 C 1.6 km/h
1164 09-05-2021 00:55:00 10.6 C 8.3 g/m*3 10.6 C 0 km/h
1165 09-05-2021 01:00:00 10.5 C 8.24 g/m*3 10.5 C 3.2 km/h
1166 09-05-2021 01:05:00 10.4 C 8.19 g/m*3 10.4 C 3.2 km/h
1167 09-05-2021 01:10:00 10.4 C 8.29 g/m*3 10.4 C 3.2 km/h
1168 09-05-2021 01:15:00 10.3 C 8.24 g/m*3 10.3 C 4.8 km/h
1169 09-05-2021 01:20:00 10.2 C 8.18 g/m*3 10.2 C 4.8 km/h
1170 09-05-2021 01:25:00 10.2 C 8.18 g/m*3 10.2 C 0 km/h
1171 09-05-2021 01:30:00 10.1 C 8.13 g/m*3 10.1 C 1.6 km/h
1172 09-05-2021 01:35:00 10 C 8.08 g/m*3 10 C 0 km/h
1173 09-05-2021 01:40:00 9.9 C 8.12 g/m*3 9.9 C 0 km/h
1174 09-05-2021 01:45:00 9.8 C 8.07 g/m*3 9.8 C 1.6 km/h
1175 09-05-2021 01:50:00 9.7 C 8.02 g/m*3 9.7 C 0 km/h
Sensor: Nr:Datum:Temp:Abs-Feuchte:Windchill:Wind:
Aussen-T/F 1176 09-05-2021 01:55:00 9.7 C 8.11 g/m*3 9.7 C 1.6 km/h
1177 09-05-2021 02:00:00 9.6 C 8.06 g/m*3 9.6 C 0 km/h
1178 09-05-2021 02:05:00 9.6 C 8.06 g/m*3 9.6 C 0 km/h
1179 09-05-2021 02:10:00 9.5 C 8.01 g/m*3 9.5 C 0 km/h
1180 09-05-2021 02:15:00 9.4 C 8.05 g/m*3 9.4 C 0 km/h
1181 09-05-2021 02:20:00 9.3 C 8 g/m*3 9.3 C 0 km/h
1182 09-05-2021 02:25:00 9.3 C 8 g/m*3 9.3 C 0 km/h
1183 09-05-2021 02:30:00 9.2 C 7.95 g/m*3 9.2 C 0 km/h
1184 09-05-2021 02:35:00 9.2 C 7.95 g/m*3 9.2 C 0 km/h
1185 09-05-2021 02:40:00 9.2 C 7.95 g/m*3 9.2 C 0 km/h
1186 09-05-2021 02:45:00 9.1 C 7.99 g/m*3 9.1 C 1.6 km/h
1187 09-05-2021 02:50:00 9.1 C 7.99 g/m*3 9.1 C 0 km/h
1188 09-05-2021 02:55:00 9 C 7.93 g/m*3 9 C 0 km/h
1189 09-05-2021 03:00:00 8.9 C 7.88 g/m*3 8.9 C 0 km/h
1190 09-05-2021 03:05:00 8.9 C 7.88 g/m*3 8.9 C 0 km/h
1191 09-05-2021 03:10:00 8.8 C 7.83 g/m*3 8.8 C 0 km/h
1192 09-05-2021 03:15:00 8.8 C 7.83 g/m*3 8.8 C 0 km/h
1193 09-05-2021 03:20:00 8.7 C 7.87 g/m*3 8.7 C 0 km/h
1194 09-05-2021 03:25:00 8.7 C 7.87 g/m*3 8.7 C 0 km/h
1195 09-05-2021 03:30:00 8.7 C 7.87 g/m*3 8.7 C 0 km/h
1196 09-05-2021 03:35:00 8.7 C 7.87 g/m*3 8.7 C 0 km/h
1197 09-05-2021 03:40:00 8.7 C 7.87 g/m*3 8.7 C 0 km/h
1198 09-05-2021 03:45:00 8.6 C 7.82 g/m*3 8.6 C 0 km/h
1199 09-05-2021 03:50:00 8.6 C 7.82 g/m*3 8.6 C 0 km/h
1200 09-05-2021 03:55:00 8.5 C 7.77 g/m*3 8.5 C 0 km/h
Sensor: Nr:Datum:Temp:Abs-Feuchte:Windchill:Wind:
Aussen-T/F 1201 09-05-2021 04:00:00 8.4 C 7.72 g/m*3 8.4 C 0 km/h
1202 09-05-2021 04:05:00 8.4 C 7.72 g/m*3 8.4 C 0 km/h
1203 09-05-2021 04:10:00 8.3 C 7.67 g/m*3 8.3 C 0 km/h
1204 09-05-2021 04:15:00 8.3 C 7.67 g/m*3 8.3 C 0 km/h
1205 09-05-2021 04:20:00 8.2 C 7.62 g/m*3 8.2 C 0 km/h
1206 09-05-2021 04:25:00 8.1 C 7.57 g/m*3 8.1 C 0 km/h
1207 09-05-2021 04:30:00 8.1 C 7.57 g/m*3 8.1 C 0 km/h
1208 09-05-2021 04:35:00 8.1 C 7.66 g/m*3 8.1 C 0 km/h
1209 09-05-2021 04:40:00 8 C 7.61 g/m*3 8 C 0 km/h
1210 09-05-2021 04:45:00 8 C 7.61 g/m*3 8 C 0 km/h
1211 09-05-2021 04:50:00 8 C 7.61 g/m*3 8 C 0 km/h
1212 09-05-2021 04:55:00 8 C 7.61 g/m*3 8 C 0 km/h
1213 09-05-2021 05:00:00 7.9 C 7.56 g/m*3 7.9 C 0 km/h
1214 09-05-2021 05:05:00 7.9 C 7.56 g/m*3 7.9 C 0 km/h
1215 09-05-2021 05:10:00 7.9 C 7.64 g/m*3 7.9 C 0 km/h
1216 09-05-2021 05:15:00 8 C 7.69 g/m*3 8 C 0 km/h
1217 09-05-2021 05:20:00 8 C 7.69 g/m*3 8 C 0 km/h
1218 09-05-2021 05:25:00 7.9 C 7.64 g/m*3 7.9 C 0 km/h
1219 09-05-2021 05:30:00 7.9 C 7.56 g/m*3 7.9 C 0 km/h
1220 09-05-2021 05:35:00 7.8 C 7.51 g/m*3 7.8 C 0 km/h
1221 09-05-2021 05:40:00 7.7 C 7.46 g/m*3 7.7 C 0 km/h
1222 09-05-2021 05:45:00 7.6 C 7.41 g/m*3 7.6 C 0 km/h
1223 09-05-2021 05:50:00 7.5 C 7.44 g/m*3 7.5 C 0 km/h
1224 09-05-2021 05:55:00 7.5 C 7.44 g/m*3 7.5 C 0 km/h
1225 09-05-2021 06:00:00 7.4 C 7.4 g/m*3 7.4 C 0 km/h
Sensor: Nr:Datum:Temp:Abs-Feuchte:Windchill:Wind:
Aussen-T/F 1226 09-05-2021 06:05:00 7.4 C 7.4 g/m*3 7.4 C 0 km/h
1227 09-05-2021 06:10:00 7.4 C 7.4 g/m*3 7.4 C 0 km/h
1228 09-05-2021 06:15:00 7.4 C 7.4 g/m*3 7.4 C 0 km/h
1229 09-05-2021 06:20:00 7.4 C 7.4 g/m*3 7.4 C 0 km/h
1230 09-05-2021 06:25:00 7.4 C 7.4 g/m*3 7.4 C 0 km/h
1231 09-05-2021 06:30:00 7.5 C 7.52 g/m*3 7.5 C 0 km/h
1232 09-05-2021 06:35:00 7.6 C 7.57 g/m*3 7.6 C 0 km/h
1233 09-05-2021 06:40:00 7.6 C 7.57 g/m*3 7.6 C 0 km/h
1234 09-05-2021 06:45:00 7.7 C 7.62 g/m*3 7.7 C 0 km/h
1235 09-05-2021 06:50:00 7.7 C 7.62 g/m*3 7.7 C 0 km/h
1236 09-05-2021 06:55:00 7.8 C 7.67 g/m*3 7.8 C 0 km/h
1237 09-05-2021 07:00:00 7.9 C 7.72 g/m*3 7.9 C 0 km/h
1238 09-05-2021 07:05:00 8.1 C 7.9 g/m*3 8.1 C 0 km/h
1239 09-05-2021 07:10:00 8.2 C 7.87 g/m*3 8.2 C 0 km/h
1240 09-05-2021 07:15:00 8.3 C 8.01 g/m*3 8.3 C 0 km/h
1241 09-05-2021 07:20:00 8.4 C 8.06 g/m*3 8.4 C 0 km/h
1242 09-05-2021 07:25:00 8.5 C 8.03 g/m*3 8.5 C 0 km/h
1243 09-05-2021 07:30:00 8.6 C 8.16 g/m*3 8.6 C 0 km/h
1244 09-05-2021 07:35:00 8.7 C 8.13 g/m*3 8.7 C 0 km/h
1245 09-05-2021 07:40:00 8.8 C 8.18 g/m*3 8.8 C 0 km/h
1246 09-05-2021 07:45:00 8.8 C 8.18 g/m*3 8.8 C 0 km/h
1247 09-05-2021 07:50:00 8.9 C 8.32 g/m*3 8.9 C 0 km/h
1248 09-05-2021 07:55:00 9.1 C 8.43 g/m*3 9.1 C 0 km/h
1249 09-05-2021 08:00:00 9.2 C 8.48 g/m*3 9.2 C 0 km/h
1250 09-05-2021 08:05:00 9.3 C 8.54 g/m*3 9.3 C 0 km/h
Sensor: Nr:Datum:Temp:Abs-Feuchte:Windchill:Wind:
Aussen-T/F 1251 09-05-2021 08:10:00 9.4 C 8.59 g/m*3 9.4 C 0 km/h
1252 09-05-2021 08:15:00 9.6 C 8.7 g/m*3 9.6 C 0 km/h
1253 09-05-2021 08:20:00 9.7 C 8.76 g/m*3 9.7 C 0 km/h
1254 09-05-2021 08:25:00 9.8 C 8.72 g/m*3 9.8 C 0 km/h
1255 09-05-2021 08:30:00 9.9 C 8.78 g/m*3 9.9 C 0 km/h
1256 09-05-2021 08:35:00 10.1 C 8.98 g/m*3 10.1 C 0 km/h
1257 09-05-2021 08:40:00 10.2 C 8.95 g/m*3 10.2 C 0 km/h
1258 09-05-2021 08:45:00 10.3 C 9 g/m*3 10.3 C 0 km/h
1259 09-05-2021 08:50:00 10.4 C 9.06 g/m*3 10.4 C 0 km/h
1260 09-05-2021 08:55:00 10.6 C 9.17 g/m*3 10.6 C 0 km/h
1261 09-05-2021 09:00:00 10.7 C 9.23 g/m*3 10.7 C 0 km/h
1262 09-05-2021 09:05:00 10.9 C 9.35 g/m*3 10.9 C 0 km/h
1263 09-05-2021 09:10:00 11.1 C 9.47 g/m*3 11.1 C 0 km/h
1264 09-05-2021 09:15:00 11.2 C 9.53 g/m*3 11.2 C 0 km/h
1265 09-05-2021 09:20:00 11.4 C 9.55 g/m*3 11.4 C 0 km/h
1266 09-05-2021 09:25:00 11.7 C 9.73 g/m*3 11.7 C 0 km/h
1267 09-05-2021 09:30:00 11.9 C 9.85 g/m*3 11.9 C 0 km/h
1268 09-05-2021 09:35:00 12.2 C 10.04 g/m*3 12.2 C 0 km/h
1269 09-05-2021 09:40:00 12.6 C 10.18 g/m*3 12.6 C 1.6 km/h
1270 09-05-2021 09:45:00 12.9 C 10.26 g/m*3 12.9 C 1.6 km/h
1271 09-05-2021 09:50:00 13.3 C 10.51 g/m*3 13.3 C 0 km/h
1272 09-05-2021 09:55:00 13.8 C 10.72 g/m*3 13.8 C 1.6 km/h
1273 09-05-2021 10:00:00 14.3 C 10.81 g/m*3 14.3 C 4.8 km/h
1274 09-05-2021 10:05:00 14.9 C 11.09 g/m*3 14.9 C 3.2 km/h
1275 09-05-2021 10:10:00 15.6 C 11.3 g/m*3 15.6 C 3.2 km/h
Sensor: Nr:Datum:Temp:Abs-Feuchte:Windchill:Wind:
Aussen-T/F 1276 09-05-2021 10:15:00 16.3 C 11.38 g/m*3 16.3 C 8.1 km/h
1277 09-05-2021 10:20:00 17.6 C 11.1 g/m*3 17.6 C 8.1 km/h
1278 09-05-2021 10:25:00 18.5 C 11.71 g/m*3 18.5 C 8.1 km/h
1279 09-05-2021 10:30:00 19.2 C 11.38 g/m*3 19.2 C 8.1 km/h
1280 09-05-2021 10:35:00 19.7 C 11.55 g/m*3 19.7 C 6.4 km/h
1281 09-05-2021 10:40:00 20.1 C 11.13 g/m*3 20.1 C 8.1 km/h
1282 09-05-2021 10:45:00 20.6 C 11.63 g/m*3 20.6 C 6.4 km/h
1283 09-05-2021 10:50:00 20.9 C 11.47 g/m*3 20.9 C 9.7 km/h
1284 09-05-2021 10:55:00 21.3 C 11.37 g/m*3 21.3 C 12.9 km/h
1285 09-05-2021 11:00:00 21.6 C 11.19 g/m*3 21.6 C 6.4 km/h
1286 09-05-2021 11:05:00 21.7 C 11.06 g/m*3 21.7 C 11.3 km/h
1287 09-05-2021 11:10:00 21.8 C 11.13 g/m*3 21.8 C 14.5 km/h
1288 09-05-2021 11:15:00 21.9 C 11.19 g/m*3 21.9 C 16.1 km/h
1289 09-05-2021 11:20:00 22.2 C 11.19 g/m*3 22.2 C 6.4 km/h
1290 09-05-2021 11:25:00 22.4 C 11.12 g/m*3 22.4 C 11.3 km/h
1291 09-05-2021 11:30:00 22.7 C 11.52 g/m*3 22.7 C 9.7 km/h
1292 09-05-2021 11:35:00 22.9 C 11.24 g/m*3 22.9 C 9.7 km/h
1293 09-05-2021 11:40:00 23.1 C 11.16 g/m*3 23.1 C 9.7 km/h
1294 09-05-2021 11:45:00 23.2 C 11.02 g/m*3 23.2 C 14.5 km/h
1295 09-05-2021 11:50:00 23.1 C 11.16 g/m*3 23.1 C 8.1 km/h
1296 09-05-2021 11:55:00 23.2 C 11.23 g/m*3 23.2 C 4.8 km/h
1297 09-05-2021 12:00:00 23.4 C 11.14 g/m*3 23.4 C 9.7 km/h
1298 09-05-2021 12:05:00 23.6 C 10.85 g/m*3 23.6 C 9.7 km/h
1299 09-05-2021 12:10:00 23.8 C 11.19 g/m*3 23.8 C 6.4 km/h
1300 09-05-2021 12:15:00 23.9 C 10.82 g/m*3 23.9 C 17.7 km/h
Sensor: Nr:Datum:Temp:Abs-Feuchte:Windchill:Wind:
Aussen-T/F 1301 09-05-2021 12:20:00 24.1 C 11.16 g/m*3 24.1 C 11.3 km/h
1302 09-05-2021 12:25:00 24.2 C 11 g/m*3 24.2 C 12.9 km/h
1303 09-05-2021 12:30:00 24.4 C 10.9 g/m*3 24.4 C 9.7 km/h
1304 09-05-2021 12:35:00 24.5 C 11.41 g/m*3 24.5 C 9.7 km/h
1305 09-05-2021 12:40:00 24.6 C 11.48 g/m*3 24.6 C 12.9 km/h
1306 09-05-2021 12:45:00 24.6 C 11.25 g/m*3 24.6 C 17.7 km/h
1307 09-05-2021 12:50:00 24.6 C 11.7 g/m*3 24.6 C 8.1 km/h
1308 09-05-2021 12:55:00 24.7 C 11.32 g/m*3 24.7 C 16.1 km/h
1309 09-05-2021 13:00:00 24.8 C 11.15 g/m*3 24.8 C 11.3 km/h
1310 09-05-2021 13:05:00 24.9 C 11.45 g/m*3 24.9 C 11.3 km/h
1311 09-05-2021 13:10:00 25.1 C 10.88 g/m*3 25.1 C 14.5 km/h
1312 09-05-2021 13:15:00 25.3 C 11.47 g/m*3 25.3 C 11.3 km/h
1313 09-05-2021 13:20:00 25.4 C 11.3 g/m*3 25.4 C 9.7 km/h
1314 09-05-2021 13:25:00 25.6 C 11.19 g/m*3 25.6 C 8.1 km/h
1315 09-05-2021 13:30:00 25.7 C 11.25 g/m*3 25.7 C 11.3 km/h
1316 09-05-2021 13:35:00 25.9 C 11.38 g/m*3 25.9 C 11.3 km/h
1317 09-05-2021 13:40:00 26.1 C 11.75 g/m*3 26.1 C 14.5 km/h
1318 09-05-2021 13:45:00 26.3 C 11.39 g/m*3 26.3 C 12.9 km/h
1319 09-05-2021 13:50:00 26.4 C 10.7 g/m*3 26.4 C 25.7 km/h
1320 09-05-2021 13:55:00 26.6 C 10.57 g/m*3 26.6 C 25.7 km/h
1321 09-05-2021 14:00:00 26.7 C 10.63 g/m*3 26.7 C 8.1 km/h
1322 09-05-2021 14:05:00 26.8 C 10.44 g/m*3 26.8 C 14.5 km/h
1323 09-05-2021 14:10:00 26.8 C 10.44 g/m*3 26.8 C 19.3 km/h
1324 09-05-2021 14:15:00 26.9 C 10.75 g/m*3 26.9 C 9.7 km/h
1325 09-05-2021 14:20:00 27 C 10.55 g/m*3 27 C 12.9 km/h
Sensor: Nr:Datum:Temp:Abs-Feuchte:Windchill:Wind:
Aussen-T/F 1326 09-05-2021 14:25:00 27.1 C 10.35 g/m*3 27.1 C 14.5 km/h
1327 09-05-2021 14:30:00 27.2 C 10.67 g/m*3 27.2 C 9.7 km/h
1328 09-05-2021 14:35:00 27.3 C 10.73 g/m*3 27.3 C 17.7 km/h
1329 09-05-2021 14:40:00 27.5 C 10.58 g/m*3 27.5 C 14.5 km/h
1330 09-05-2021 14:45:00 27.7 C 10.16 g/m*3 27.7 C 11.3 km/h
1331 09-05-2021 14:50:00 27.7 C 10.7 g/m*3 27.7 C 11.3 km/h
1332 09-05-2021 14:55:00 27.7 C 10.97 g/m*3 27.7 C 12.9 km/h
1333 09-05-2021 15:00:00 27.8 C 10.49 g/m*3 27.8 C 11.3 km/h
1334 09-05-2021 15:05:00 27.9 C 10.55 g/m*3 27.9 C 16.1 km/h
1335 09-05-2021 15:10:00 27.9 C 10.55 g/m*3 27.9 C 12.9 km/h
1336 09-05-2021 15:15:00 28 C 10.33 g/m*3 28 C 22.5 km/h
1337 09-05-2021 15:20:00 28.1 C 10.39 g/m*3 28.1 C 29 km/h
1338 09-05-2021 15:25:00 28.3 C 10.51 g/m*3 28.3 C 11.3 km/h
1339 09-05-2021 15:30:00 28.6 C 10.96 g/m*3 28.6 C 27.4 km/h
1340 09-05-2021 15:35:00 28.8 C 10.51 g/m*3 28.8 C 19.3 km/h
1341 09-05-2021 15:40:00 28.9 C 10.57 g/m*3 28.9 C 16.1 km/h
1342 09-05-2021 15:45:00 29.1 C 10.11 g/m*3 29.1 C 17.7 km/h
1343 09-05-2021 15:50:00 29.1 C 10.11 g/m*3 29.1 C 16.1 km/h
1344 09-05-2021 15:55:00 28.9 C 10.28 g/m*3 28.9 C 16.1 km/h
1345 09-05-2021 16:00:00 28.8 C 10.8 g/m*3 28.8 C 14.5 km/h
1346 09-05-2021 16:05:00 28.9 C 11.14 g/m*3 28.9 C 12.9 km/h
1347 09-05-2021 16:10:00 29.2 C 11.03 g/m*3 29.2 C 22.5 km/h
1348 09-05-2021 16:15:00 29.3 C 10.8 g/m*3 29.3 C 19.3 km/h
1349 09-05-2021 16:20:00 29.3 C 10.51 g/m*3 29.3 C 9.7 km/h
1350 09-05-2021 16:25:00 29.2 C 10.16 g/m*3 29.2 C 9.7 km/h
Sensor: Nr:Datum:Temp:Abs-Feuchte:Windchill:Wind:
Aussen-T/F 1351 09-05-2021 16:30:00 29.2 C 10.16 g/m*3 29.2 C 12.9 km/h
1352 09-05-2021 16:35:00 29.2 C 10.74 g/m*3 29.2 C 16.1 km/h
1353 09-05-2021 16:40:00 29.2 C 10.45 g/m*3 29.2 C 16.1 km/h
1354 09-05-2021 16:45:00 29.2 C 10.16 g/m*3 29.2 C 16.1 km/h
1355 09-05-2021 16:50:00 29.1 C 10.69 g/m*3 29.1 C 16.1 km/h
1356 09-05-2021 16:55:00 29.2 C 11.03 g/m*3 29.2 C 8.1 km/h
1357 09-05-2021 17:00:00 29.3 C 10.8 g/m*3 29.3 C 11.3 km/h
1358 09-05-2021 17:05:00 29.4 C 10.57 g/m*3 29.4 C 19.3 km/h
1359 09-05-2021 17:10:00 29.4 C 10.27 g/m*3 29.4 C 19.3 km/h
1360 09-05-2021 17:15:00 29.4 C 9.98 g/m*3 29.4 C 14.5 km/h
1361 09-05-2021 17:20:00 29.4 C 10.57 g/m*3 29.4 C 9.7 km/h
1362 09-05-2021 17:25:00 29.6 C 10.68 g/m*3 29.6 C 11.3 km/h
1363 09-05-2021 17:30:00 29.6 C 10.09 g/m*3 29.6 C 14.5 km/h
1364 09-05-2021 17:35:00 29.7 C 10.44 g/m*3 29.7 C 11.3 km/h
1365 09-05-2021 17:40:00 29.8 C 10.2 g/m*3 29.8 C 9.7 km/h
1366 09-05-2021 17:45:00 29.8 C 10.2 g/m*3 29.8 C 9.7 km/h
1367 09-05-2021 17:50:00 29.6 C 9.79 g/m*3 29.6 C 8.1 km/h
1368 09-05-2021 17:55:00 29.2 C 9.58 g/m*3 29.2 C 14.5 km/h
1369 09-05-2021 18:00:00 28.8 C 9.38 g/m*3 28.8 C 14.5 km/h
1370 09-05-2021 18:05:00 28.5 C 9.5 g/m*3 28.5 C 11.3 km/h
1371 09-05-2021 18:10:00 28.3 C 9.95 g/m*3 28.3 C 8.1 km/h
1372 09-05-2021 18:15:00 27.8 C 9.41 g/m*3 27.8 C 16.1 km/h
1373 09-05-2021 18:20:00 27.4 C 8.95 g/m*3 27.4 C 24.1 km/h
1374 09-05-2021 18:25:00 27.1 C 9.06 g/m*3 27.1 C 20.9 km/h
1375 09-05-2021 18:30:00 26.8 C 9.16 g/m*3 26.8 C 14.5 km/h
Sensor: Nr:Datum:Temp:Abs-Feuchte:Windchill:Wind:
Aussen-T/F 1376 09-05-2021 18:35:00 26.6 C 8.31 g/m*3 26.6 C 17.7 km/h
1377 09-05-2021 18:40:00 26.4 C 8.21 g/m*3 26.4 C 9.7 km/h
1378 09-05-2021 18:45:00 26.3 C 7.92 g/m*3 26.3 C 17.7 km/h
1379 09-05-2021 18:50:00 26.3 C 7.67 g/m*3 26.3 C 25.7 km/h
1380 09-05-2021 18:55:00 26.2 C 7.63 g/m*3 26.2 C 16.1 km/h
1381 09-05-2021 19:00:00 26.1 C 7.59 g/m*3 26.1 C 16.1 km/h
1382 09-05-2021 19:05:00 26.1 C 7.83 g/m*3 26.1 C 19.3 km/h
1383 09-05-2021 19:10:00 25.9 C 7.51 g/m*3 25.9 C 11.3 km/h
1384 09-05-2021 19:15:00 25.8 C 7.7 g/m*3 25.8 C 12.9 km/h
1385 09-05-2021 19:20:00 25.8 C 7.94 g/m*3 25.8 C 9.7 km/h
1386 09-05-2021 19:25:00 25.7 C 8.14 g/m*3 25.7 C 14.5 km/h
1387 09-05-2021 19:30:00 25.6 C 7.62 g/m*3 25.6 C 11.3 km/h
1388 09-05-2021 19:35:00 25.6 C 7.62 g/m*3 25.6 C 11.3 km/h
1389 09-05-2021 19:40:00 25.5 C 8.05 g/m*3 25.5 C 9.7 km/h
1390 09-05-2021 19:45:00 25.3 C 8.66 g/m*3 25.3 C 6.4 km/h
1391 09-05-2021 19:50:00 25.2 C 8.61 g/m*3 25.2 C 9.7 km/h
1392 09-05-2021 19:55:00 25 C 8.75 g/m*3 25 C 6.4 km/h
1393 09-05-2021 20:00:00 24.8 C 8.88 g/m*3 24.8 C 3.2 km/h
1394 09-05-2021 20:05:00 24.4 C 8.68 g/m*3 24.4 C 6.4 km/h
1395 09-05-2021 20:10:00 24.1 C 9.41 g/m*3 24.1 C 3.2 km/h
1396 09-05-2021 20:15:00 23.8 C 8.82 g/m*3 23.8 C 1.6 km/h
1397 09-05-2021 20:20:00 23.4 C 9.25 g/m*3 23.4 C 3.2 km/h
1398 09-05-2021 20:25:00 23.1 C 9.1 g/m*3 23.1 C 6.4 km/h
1399 09-05-2021 20:30:00 22.9 C 9.4 g/m*3 22.9 C 9.7 km/h
1400 09-05-2021 20:35:00 22.8 C 9.14 g/m*3 22.8 C 6.4 km/h
Sensor: Nr:Datum:Temp:Abs-Feuchte:Windchill:Wind:
Aussen-T/F 1401 09-05-2021 20:40:00 22.7 C 9.29 g/m*3 22.7 C 4.8 km/h
1402 09-05-2021 20:45:00 22.6 C 9.64 g/m*3 22.6 C 4.8 km/h
1403 09-05-2021 20:50:00 22.3 C 9.08 g/m*3 22.3 C 4.8 km/h
1404 09-05-2021 20:55:00 22 C 9.7 g/m*3 22 C 4.8 km/h
1405 09-05-2021 21:00:00 21.8 C 9.78 g/m*3 21.8 C 4.8 km/h
1406 09-05-2021 21:05:00 21.5 C 9.81 g/m*3 21.5 C 4.8 km/h
1407 09-05-2021 21:10:00 21.3 C 9.88 g/m*3 21.3 C 3.2 km/h
1408 09-05-2021 21:15:00 21 C 9.89 g/m*3 21 C 6.4 km/h
1409 09-05-2021 21:20:00 20.7 C 9.72 g/m*3 20.7 C 3.2 km/h
1410 09-05-2021 21:25:00 20.6 C 9.66 g/m*3 20.6 C 1.6 km/h
1411 09-05-2021 21:30:00 20.4 C 9.91 g/m*3 20.4 C 4.8 km/h
1412 09-05-2021 21:35:00 20.3 C 9.5 g/m*3 20.3 C 6.4 km/h
1413 09-05-2021 21:40:00 20.3 C 9.5 g/m*3 20.3 C 4.8 km/h
1414 09-05-2021 21:45:00 20.3 C 9.85 g/m*3 20.3 C 4.8 km/h
1415 09-05-2021 21:50:00 20.3 C 9.67 g/m*3 20.3 C 8.1 km/h
1416 09-05-2021 21:55:00 20.3 C 9.67 g/m*3 20.3 C 4.8 km/h
1417 09-05-2021 22:00:00 20.2 C 9.62 g/m*3 20.2 C 1.6 km/h
1418 09-05-2021 22:05:00 20.2 C 9.79 g/m*3 20.2 C 3.2 km/h
1419 09-05-2021 22:10:00 20.1 C 9.91 g/m*3 20.1 C 1.6 km/h
1420 09-05-2021 22:15:00 20 C 10.02 g/m*3 20 C 4.8 km/h
1421 09-05-2021 22:20:00 19.8 C 9.91 g/m*3 19.8 C 1.6 km/h
1422 09-05-2021 22:25:00 19.6 C 9.96 g/m*3 19.6 C 4.8 km/h
1423 09-05-2021 22:30:00 19.3 C 9.95 g/m*3 19.3 C 3.2 km/h
1424 09-05-2021 22:35:00 19.1 C 9.84 g/m*3 19.1 C 4.8 km/h
1425 09-05-2021 22:40:00 18.9 C 9.88 g/m*3 18.9 C 4.8 km/h
Sensor: Nr:Datum:Temp:Abs-Feuchte:Windchill:Wind:
Aussen-T/F 1426 09-05-2021 22:45:00 18.7 C 10.09 g/m*3 18.7 C 3.2 km/h
1427 09-05-2021 22:50:00 18.6 C 10.03 g/m*3 18.6 C 4.8 km/h
1428 09-05-2021 22:55:00 18.6 C 10.03 g/m*3 18.6 C 3.2 km/h
1429 09-05-2021 23:00:00 18.5 C 9.81 g/m*3 18.5 C 3.2 km/h
1430 09-05-2021 23:05:00 18.6 C 10.03 g/m*3 18.6 C 3.2 km/h
1431 09-05-2021 23:10:00 18.6 C 9.71 g/m*3 18.6 C 4.8 km/h
1432 09-05-2021 23:15:00 18.7 C 9.93 g/m*3 18.7 C 4.8 km/h
1433 09-05-2021 23:20:00 18.7 C 9.93 g/m*3 18.7 C 1.6 km/h
1434 09-05-2021 23:25:00 18.8 C 9.82 g/m*3 18.8 C 3.2 km/h
1435 09-05-2021 23:30:00 18.9 C 9.88 g/m*3 18.9 C 3.2 km/h
1436 09-05-2021 23:35:00 19.1 C 9.84 g/m*3 19.1 C 6.4 km/h
1437 09-05-2021 23:40:00 19.2 C 9.89 g/m*3 19.2 C 6.4 km/h
1438 09-05-2021 23:45:00 19.3 C 9.79 g/m*3 19.3 C 4.8 km/h
1439 09-05-2021 23:50:00 19.4 C 10.01 g/m*3 19.4 C 3.2 km/h
1440 09-05-2021 23:55:00 19.5 C 9.9 g/m*3 19.5 C 3.2 km/h

Legende:
   Min
   Max


Maximal/Minimal-Werte vom 23.02.2003 - 23.04.2020

Sensor Min Max Avg
Temp
(Aussen-T/F)
-16.4 °C
20-12-2009  01:30:01
40.4 °C
25-07-2019  16:20:00
11.1 °C

Die Daten stammen von einer Davis Vantage Pro 2 Wetter-Station und werden unter Linux mit der Software wview2wettercgi und aufbereitet. Alle Angaben erfolgen ohne Gewähr für ihre Vollständigkeit oder Richtigkeit.
Kontakt: Rainer Krienke krienke@uni-koblenz.de . Meine Webseiten an der Uni Koblenz oder privat.
Version: $Revision: 0.78 $